<?xml version="1.0" encoding="UTF-8" standalone="no" ?>
<gpx xmlns="http://www.topografix.com/GPX/1/1" xmlns:xsi="http://www.w3.org/2001/XMLSchema-instance" xsi:schemaLocation="http://www.topografix.com/GPX/1/1 http://www.topografix.com/GPX/1/1/gpx.xsd" version="1.1" creator="VisuGPX - https://www.visugpx.com">
  <metadata>
    <name>83 - L - Plan d'Aups </name>
    <desc><![CDATA[83 - L - Plan d'Aups : Dents de Roque Forcade 
2023-04-24]]></desc>
  </metadata>
  <trk>
    <name><![CDATA[Plan d'Aups Dents de Roque Forcade 2023-04-24-01]]></name>
    <trkseg>
      <trkpt lat="43.32349" lon="5.70513">
        <ele>673</ele>
        <time>2023-04-24T07:38:25Z</time>
      </trkpt>
      <trkpt lat="43.32351" lon="5.70507">
        <ele>672</ele>
        <time>2023-04-24T07:38:28Z</time>
      </trkpt>
      <trkpt lat="43.32355" lon="5.70496">
        <ele>671</ele>
        <time>2023-04-24T07:38:38Z</time>
      </trkpt>
      <trkpt lat="43.32365" lon="5.70486">
        <ele>670</ele>
        <time>2023-04-24T07:38:48Z</time>
      </trkpt>
      <trkpt lat="43.32374" lon="5.70478">
        <ele>670</ele>
        <time>2023-04-24T07:38:56Z</time>
      </trkpt>
      <trkpt lat="43.32382" lon="5.70471">
        <ele>670.1</ele>
        <time>2023-04-24T07:39:03Z</time>
      </trkpt>
      <trkpt lat="43.32389" lon="5.70463">
        <ele>669.6</ele>
        <time>2023-04-24T07:39:12Z</time>
      </trkpt>
      <trkpt lat="43.32396" lon="5.70454">
        <ele>669.1</ele>
        <time>2023-04-24T07:39:21Z</time>
      </trkpt>
      <trkpt lat="43.32404" lon="5.70446">
        <ele>668.7</ele>
        <time>2023-04-24T07:39:31Z</time>
      </trkpt>
      <trkpt lat="43.32412" lon="5.70439">
        <ele>668.7</ele>
        <time>2023-04-24T07:39:40Z</time>
      </trkpt>
      <trkpt lat="43.32419" lon="5.70431">
        <ele>668.6</ele>
        <time>2023-04-24T07:39:48Z</time>
      </trkpt>
      <trkpt lat="43.32427" lon="5.70422">
        <ele>668.6</ele>
        <time>2023-04-24T07:39:57Z</time>
      </trkpt>
      <trkpt lat="43.32432" lon="5.70411">
        <ele>668.6</ele>
        <time>2023-04-24T07:40:07Z</time>
      </trkpt>
      <trkpt lat="43.32435" lon="5.70399">
        <ele>668.2</ele>
        <time>2023-04-24T07:40:15Z</time>
      </trkpt>
      <trkpt lat="43.32436" lon="5.70387">
        <ele>668.6</ele>
        <time>2023-04-24T07:40:25Z</time>
      </trkpt>
      <trkpt lat="43.32431" lon="5.70376">
        <ele>668.3</ele>
        <time>2023-04-24T07:40:42Z</time>
      </trkpt>
      <trkpt lat="43.32424" lon="5.70367">
        <ele>667.7</ele>
        <time>2023-04-24T07:40:50Z</time>
      </trkpt>
      <trkpt lat="43.3242" lon="5.70356">
        <ele>668.4</ele>
        <time>2023-04-24T07:40:58Z</time>
      </trkpt>
      <trkpt lat="43.32421" lon="5.70343">
        <ele>668.8</ele>
        <time>2023-04-24T07:41:07Z</time>
      </trkpt>
      <trkpt lat="43.32421" lon="5.7033">
        <ele>668.5</ele>
        <time>2023-04-24T07:41:17Z</time>
      </trkpt>
      <trkpt lat="43.32423" lon="5.70317">
        <ele>667.6</ele>
        <time>2023-04-24T07:41:28Z</time>
      </trkpt>
      <trkpt lat="43.32428" lon="5.70307">
        <ele>666</ele>
        <time>2023-04-24T07:41:46Z</time>
      </trkpt>
      <trkpt lat="43.32437" lon="5.70307">
        <ele>665.4</ele>
        <time>2023-04-24T07:41:59Z</time>
      </trkpt>
      <trkpt lat="43.32446" lon="5.70308">
        <ele>664.9</ele>
        <time>2023-04-24T07:42:09Z</time>
      </trkpt>
      <trkpt lat="43.32456" lon="5.70307">
        <ele>664.8</ele>
        <time>2023-04-24T07:42:19Z</time>
      </trkpt>
      <trkpt lat="43.32465" lon="5.70307">
        <ele>664.4</ele>
        <time>2023-04-24T07:42:27Z</time>
      </trkpt>
      <trkpt lat="43.32474" lon="5.70308">
        <ele>664</ele>
        <time>2023-04-24T07:42:33Z</time>
      </trkpt>
      <trkpt lat="43.32483" lon="5.70309">
        <ele>663.5</ele>
        <time>2023-04-24T07:42:45Z</time>
      </trkpt>
      <trkpt lat="43.32492" lon="5.70306">
        <ele>663.4</ele>
        <time>2023-04-24T07:42:56Z</time>
      </trkpt>
      <trkpt lat="43.32502" lon="5.70303">
        <ele>663</ele>
        <time>2023-04-24T07:43:04Z</time>
      </trkpt>
      <trkpt lat="43.3251" lon="5.70297">
        <ele>662.8</ele>
        <time>2023-04-24T07:43:14Z</time>
      </trkpt>
      <trkpt lat="43.32518" lon="5.70291">
        <ele>662.4</ele>
        <time>2023-04-24T07:43:26Z</time>
      </trkpt>
      <trkpt lat="43.32528" lon="5.70289">
        <ele>661.8</ele>
        <time>2023-04-24T07:43:34Z</time>
      </trkpt>
      <trkpt lat="43.32537" lon="5.70284">
        <ele>660.4</ele>
        <time>2023-04-24T07:43:46Z</time>
      </trkpt>
      <trkpt lat="43.32545" lon="5.70281">
        <ele>660</ele>
        <time>2023-04-24T07:43:55Z</time>
      </trkpt>
      <trkpt lat="43.32554" lon="5.70277">
        <ele>659.3</ele>
        <time>2023-04-24T07:44:02Z</time>
      </trkpt>
      <trkpt lat="43.32563" lon="5.7028">
        <ele>658.3</ele>
        <time>2023-04-24T07:44:11Z</time>
      </trkpt>
      <trkpt lat="43.32572" lon="5.70275">
        <ele>657.1</ele>
        <time>2023-04-24T07:44:20Z</time>
      </trkpt>
      <trkpt lat="43.32581" lon="5.70269">
        <ele>656.8</ele>
        <time>2023-04-24T07:44:27Z</time>
      </trkpt>
      <trkpt lat="43.3259" lon="5.70265">
        <ele>657.1</ele>
        <time>2023-04-24T07:44:34Z</time>
      </trkpt>
      <trkpt lat="43.326" lon="5.70265">
        <ele>656.6</ele>
        <time>2023-04-24T07:44:43Z</time>
      </trkpt>
      <trkpt lat="43.3261" lon="5.7026">
        <ele>655.7</ele>
        <time>2023-04-24T07:44:57Z</time>
      </trkpt>
      <trkpt lat="43.32619" lon="5.70258">
        <ele>656.5</ele>
        <time>2023-04-24T07:45:08Z</time>
      </trkpt>
      <trkpt lat="43.32628" lon="5.70255">
        <ele>655.4</ele>
        <time>2023-04-24T07:45:21Z</time>
      </trkpt>
      <trkpt lat="43.32637" lon="5.70251">
        <ele>653.3</ele>
        <time>2023-04-24T07:45:29Z</time>
      </trkpt>
      <trkpt lat="43.32647" lon="5.70252">
        <ele>653.4</ele>
        <time>2023-04-24T07:45:38Z</time>
      </trkpt>
      <trkpt lat="43.32656" lon="5.70251">
        <ele>653</ele>
        <time>2023-04-24T07:45:52Z</time>
      </trkpt>
      <trkpt lat="43.32665" lon="5.70246">
        <ele>652.4</ele>
        <time>2023-04-24T07:46:02Z</time>
      </trkpt>
      <trkpt lat="43.32672" lon="5.70238">
        <ele>652.1</ele>
        <time>2023-04-24T07:46:10Z</time>
      </trkpt>
      <trkpt lat="43.3268" lon="5.7023">
        <ele>652.1</ele>
        <time>2023-04-24T07:46:19Z</time>
      </trkpt>
      <trkpt lat="43.32688" lon="5.70224">
        <ele>652.3</ele>
        <time>2023-04-24T07:46:26Z</time>
      </trkpt>
      <trkpt lat="43.32696" lon="5.70218">
        <ele>651.7</ele>
        <time>2023-04-24T07:47:06Z</time>
      </trkpt>
      <trkpt lat="43.32698" lon="5.70204">
        <ele>651.4</ele>
        <time>2023-04-24T07:47:17Z</time>
      </trkpt>
      <trkpt lat="43.32701" lon="5.70192">
        <ele>651.8</ele>
        <time>2023-04-24T07:47:27Z</time>
      </trkpt>
      <trkpt lat="43.32705" lon="5.7018">
        <ele>652</ele>
        <time>2023-04-24T07:47:37Z</time>
      </trkpt>
      <trkpt lat="43.32709" lon="5.70167">
        <ele>651.7</ele>
        <time>2023-04-24T07:47:46Z</time>
      </trkpt>
      <trkpt lat="43.32712" lon="5.70155">
        <ele>651.4</ele>
        <time>2023-04-24T07:47:54Z</time>
      </trkpt>
      <trkpt lat="43.32717" lon="5.70144">
        <ele>651.1</ele>
        <time>2023-04-24T07:48:02Z</time>
      </trkpt>
      <trkpt lat="43.3272" lon="5.70133">
        <ele>651</ele>
        <time>2023-04-24T07:48:10Z</time>
      </trkpt>
      <trkpt lat="43.32724" lon="5.70121">
        <ele>650.9</ele>
        <time>2023-04-24T07:48:18Z</time>
      </trkpt>
      <trkpt lat="43.32721" lon="5.70109">
        <ele>650.8</ele>
        <time>2023-04-24T07:48:32Z</time>
      </trkpt>
      <trkpt lat="43.32726" lon="5.70098">
        <ele>650.5</ele>
        <time>2023-04-24T07:48:41Z</time>
      </trkpt>
      <trkpt lat="43.32732" lon="5.70088">
        <ele>650.3</ele>
        <time>2023-04-24T07:48:51Z</time>
      </trkpt>
      <trkpt lat="43.32737" lon="5.70077">
        <ele>650.1</ele>
        <time>2023-04-24T07:49:02Z</time>
      </trkpt>
      <trkpt lat="43.32742" lon="5.70066">
        <ele>650.6</ele>
        <time>2023-04-24T07:49:13Z</time>
      </trkpt>
      <trkpt lat="43.32744" lon="5.70053">
        <ele>652</ele>
        <time>2023-04-24T07:49:26Z</time>
      </trkpt>
      <trkpt lat="43.32749" lon="5.70042">
        <ele>651.7</ele>
        <time>2023-04-24T07:49:35Z</time>
      </trkpt>
      <trkpt lat="43.32752" lon="5.70031">
        <ele>650.8</ele>
        <time>2023-04-24T07:49:45Z</time>
      </trkpt>
      <trkpt lat="43.32751" lon="5.70017">
        <ele>651.3</ele>
        <time>2023-04-24T07:49:55Z</time>
      </trkpt>
      <trkpt lat="43.32754" lon="5.70005">
        <ele>652</ele>
        <time>2023-04-24T07:50:04Z</time>
      </trkpt>
      <trkpt lat="43.32758" lon="5.69993">
        <ele>650.9</ele>
        <time>2023-04-24T07:50:14Z</time>
      </trkpt>
      <trkpt lat="43.32761" lon="5.69981">
        <ele>650</ele>
        <time>2023-04-24T07:50:22Z</time>
      </trkpt>
      <trkpt lat="43.32763" lon="5.69968">
        <ele>649.8</ele>
        <time>2023-04-24T07:50:30Z</time>
      </trkpt>
      <trkpt lat="43.32756" lon="5.69959">
        <ele>650</ele>
        <time>2023-04-24T07:50:46Z</time>
      </trkpt>
      <trkpt lat="43.32751" lon="5.69948">
        <ele>650.7</ele>
        <time>2023-04-24T07:50:58Z</time>
      </trkpt>
      <trkpt lat="43.32748" lon="5.69936">
        <ele>651.3</ele>
        <time>2023-04-24T07:51:09Z</time>
      </trkpt>
      <trkpt lat="43.32746" lon="5.69923">
        <ele>651.5</ele>
        <time>2023-04-24T07:51:18Z</time>
      </trkpt>
      <trkpt lat="43.32745" lon="5.69911">
        <ele>651.6</ele>
        <time>2023-04-24T07:51:27Z</time>
      </trkpt>
      <trkpt lat="43.3274" lon="5.699">
        <ele>652.3</ele>
        <time>2023-04-24T07:51:37Z</time>
      </trkpt>
      <trkpt lat="43.32735" lon="5.69888">
        <ele>652.9</ele>
        <time>2023-04-24T07:51:48Z</time>
      </trkpt>
      <trkpt lat="43.32728" lon="5.6988">
        <ele>653.3</ele>
        <time>2023-04-24T07:51:57Z</time>
      </trkpt>
      <trkpt lat="43.32723" lon="5.69868">
        <ele>653.8</ele>
        <time>2023-04-24T07:52:07Z</time>
      </trkpt>
      <trkpt lat="43.3272" lon="5.69856">
        <ele>654.5</ele>
        <time>2023-04-24T07:52:16Z</time>
      </trkpt>
      <trkpt lat="43.32719" lon="5.69843">
        <ele>656.1</ele>
        <time>2023-04-24T07:52:25Z</time>
      </trkpt>
      <trkpt lat="43.32718" lon="5.6983">
        <ele>657.3</ele>
        <time>2023-04-24T07:52:35Z</time>
      </trkpt>
      <trkpt lat="43.32719" lon="5.69817">
        <ele>658.1</ele>
        <time>2023-04-24T07:52:44Z</time>
      </trkpt>
      <trkpt lat="43.32721" lon="5.69805">
        <ele>658.9</ele>
        <time>2023-04-24T07:52:54Z</time>
      </trkpt>
      <trkpt lat="43.32717" lon="5.69792">
        <ele>660.2</ele>
        <time>2023-04-24T07:53:03Z</time>
      </trkpt>
      <trkpt lat="43.32715" lon="5.6978">
        <ele>662.2</ele>
        <time>2023-04-24T07:53:16Z</time>
      </trkpt>
      <trkpt lat="43.32706" lon="5.69774">
        <ele>663.1</ele>
        <time>2023-04-24T07:55:44Z</time>
      </trkpt>
      <trkpt lat="43.32697" lon="5.69777">
        <ele>663.4</ele>
        <time>2023-04-24T07:55:52Z</time>
      </trkpt>
      <trkpt lat="43.32689" lon="5.69783">
        <ele>663.8</ele>
        <time>2023-04-24T07:56:01Z</time>
      </trkpt>
      <trkpt lat="43.32681" lon="5.69788">
        <ele>664.7</ele>
        <time>2023-04-24T07:56:10Z</time>
      </trkpt>
      <trkpt lat="43.32671" lon="5.69791">
        <ele>666.1</ele>
        <time>2023-04-24T07:56:20Z</time>
      </trkpt>
      <trkpt lat="43.32662" lon="5.69794">
        <ele>667.9</ele>
        <time>2023-04-24T07:56:30Z</time>
      </trkpt>
      <trkpt lat="43.32653" lon="5.69796">
        <ele>669.4</ele>
        <time>2023-04-24T07:56:41Z</time>
      </trkpt>
      <trkpt lat="43.32644" lon="5.69797">
        <ele>670.7</ele>
        <time>2023-04-24T07:56:52Z</time>
      </trkpt>
      <trkpt lat="43.32635" lon="5.69794">
        <ele>672.3</ele>
        <time>2023-04-24T07:57:03Z</time>
      </trkpt>
      <trkpt lat="43.32627" lon="5.69787">
        <ele>674.5</ele>
        <time>2023-04-24T07:57:16Z</time>
      </trkpt>
      <trkpt lat="43.32619" lon="5.69782">
        <ele>675.9</ele>
        <time>2023-04-24T07:57:28Z</time>
      </trkpt>
      <trkpt lat="43.3261" lon="5.69778">
        <ele>677.7</ele>
        <time>2023-04-24T07:57:39Z</time>
      </trkpt>
      <trkpt lat="43.32601" lon="5.69775">
        <ele>679</ele>
        <time>2023-04-24T07:57:49Z</time>
      </trkpt>
      <trkpt lat="43.32592" lon="5.69771">
        <ele>680</ele>
        <time>2023-04-24T07:58:04Z</time>
      </trkpt>
      <trkpt lat="43.32585" lon="5.69762">
        <ele>679.9</ele>
        <time>2023-04-24T07:58:19Z</time>
      </trkpt>
      <trkpt lat="43.32576" lon="5.69755">
        <ele>679.3</ele>
        <time>2023-04-24T07:58:30Z</time>
      </trkpt>
      <trkpt lat="43.32568" lon="5.69752">
        <ele>678.9</ele>
        <time>2023-04-24T07:58:40Z</time>
      </trkpt>
      <trkpt lat="43.32558" lon="5.69747">
        <ele>677.3</ele>
        <time>2023-04-24T07:58:50Z</time>
      </trkpt>
      <trkpt lat="43.3255" lon="5.6974">
        <ele>676.2</ele>
        <time>2023-04-24T07:58:59Z</time>
      </trkpt>
      <trkpt lat="43.32541" lon="5.69735">
        <ele>675.1</ele>
        <time>2023-04-24T07:59:08Z</time>
      </trkpt>
      <trkpt lat="43.32532" lon="5.69733">
        <ele>674.1</ele>
        <time>2023-04-24T07:59:18Z</time>
      </trkpt>
      <trkpt lat="43.32523" lon="5.69728">
        <ele>672.7</ele>
        <time>2023-04-24T07:59:28Z</time>
      </trkpt>
      <trkpt lat="43.32516" lon="5.69719">
        <ele>671.7</ele>
        <time>2023-04-24T07:59:36Z</time>
      </trkpt>
      <trkpt lat="43.32511" lon="5.69708">
        <ele>670.4</ele>
        <time>2023-04-24T07:59:44Z</time>
      </trkpt>
      <trkpt lat="43.32505" lon="5.69698">
        <ele>669.5</ele>
        <time>2023-04-24T07:59:53Z</time>
      </trkpt>
      <trkpt lat="43.32499" lon="5.69687">
        <ele>668.9</ele>
        <time>2023-04-24T08:00:03Z</time>
      </trkpt>
      <trkpt lat="43.32494" lon="5.69676">
        <ele>668.5</ele>
        <time>2023-04-24T08:00:12Z</time>
      </trkpt>
      <trkpt lat="43.32489" lon="5.69665">
        <ele>668.3</ele>
        <time>2023-04-24T08:00:20Z</time>
      </trkpt>
      <trkpt lat="43.32483" lon="5.69654">
        <ele>668.6</ele>
        <time>2023-04-24T08:00:30Z</time>
      </trkpt>
      <trkpt lat="43.32478" lon="5.69644">
        <ele>668.9</ele>
        <time>2023-04-24T08:00:39Z</time>
      </trkpt>
      <trkpt lat="43.32472" lon="5.69635">
        <ele>669.4</ele>
        <time>2023-04-24T08:00:49Z</time>
      </trkpt>
      <trkpt lat="43.32465" lon="5.69627">
        <ele>669.9</ele>
        <time>2023-04-24T08:00:56Z</time>
      </trkpt>
      <trkpt lat="43.32458" lon="5.69618">
        <ele>670.9</ele>
        <time>2023-04-24T08:01:05Z</time>
      </trkpt>
      <trkpt lat="43.32451" lon="5.69608">
        <ele>671.9</ele>
        <time>2023-04-24T08:01:16Z</time>
      </trkpt>
      <trkpt lat="43.32444" lon="5.69599">
        <ele>673.4</ele>
        <time>2023-04-24T08:01:27Z</time>
      </trkpt>
      <trkpt lat="43.32437" lon="5.69591">
        <ele>673.9</ele>
        <time>2023-04-24T08:01:38Z</time>
      </trkpt>
      <trkpt lat="43.32434" lon="5.69579">
        <ele>676.7</ele>
        <time>2023-04-24T08:02:11Z</time>
      </trkpt>
      <trkpt lat="43.32427" lon="5.69569">
        <ele>677.4</ele>
        <time>2023-04-24T08:02:22Z</time>
      </trkpt>
      <trkpt lat="43.3242" lon="5.69561">
        <ele>678.1</ele>
        <time>2023-04-24T08:02:34Z</time>
      </trkpt>
      <trkpt lat="43.32412" lon="5.69554">
        <ele>679.3</ele>
        <time>2023-04-24T08:02:44Z</time>
      </trkpt>
      <trkpt lat="43.32407" lon="5.69544">
        <ele>680.3</ele>
        <time>2023-04-24T08:02:56Z</time>
      </trkpt>
      <trkpt lat="43.32402" lon="5.69533">
        <ele>681</ele>
        <time>2023-04-24T08:03:04Z</time>
      </trkpt>
      <trkpt lat="43.32398" lon="5.69521">
        <ele>682.1</ele>
        <time>2023-04-24T08:03:12Z</time>
      </trkpt>
      <trkpt lat="43.32393" lon="5.6951">
        <ele>683.4</ele>
        <time>2023-04-24T08:03:22Z</time>
      </trkpt>
      <trkpt lat="43.3239" lon="5.69498">
        <ele>684.2</ele>
        <time>2023-04-24T08:03:33Z</time>
      </trkpt>
      <trkpt lat="43.32385" lon="5.69486">
        <ele>684.5</ele>
        <time>2023-04-24T08:03:42Z</time>
      </trkpt>
      <trkpt lat="43.32382" lon="5.69474">
        <ele>684.5</ele>
        <time>2023-04-24T08:03:50Z</time>
      </trkpt>
      <trkpt lat="43.32377" lon="5.69462">
        <ele>685.3</ele>
        <time>2023-04-24T08:04:00Z</time>
      </trkpt>
      <trkpt lat="43.32378" lon="5.69448">
        <ele>686.4</ele>
        <time>2023-04-24T08:04:08Z</time>
      </trkpt>
      <trkpt lat="43.32374" lon="5.69436">
        <ele>687.6</ele>
        <time>2023-04-24T08:04:17Z</time>
      </trkpt>
      <trkpt lat="43.32372" lon="5.69424">
        <ele>689.2</ele>
        <time>2023-04-24T08:04:30Z</time>
      </trkpt>
      <trkpt lat="43.32366" lon="5.69414">
        <ele>689.7</ele>
        <time>2023-04-24T08:04:37Z</time>
      </trkpt>
      <trkpt lat="43.32359" lon="5.69406">
        <ele>690.6</ele>
        <time>2023-04-24T08:05:26Z</time>
      </trkpt>
      <trkpt lat="43.32357" lon="5.69394">
        <ele>691</ele>
        <time>2023-04-24T08:08:52Z</time>
      </trkpt>
      <trkpt lat="43.32352" lon="5.69383">
        <ele>691.8</ele>
        <time>2023-04-24T08:09:26Z</time>
      </trkpt>
      <trkpt lat="43.32344" lon="5.69376">
        <ele>692</ele>
        <time>2023-04-24T08:09:35Z</time>
      </trkpt>
      <trkpt lat="43.32337" lon="5.69366">
        <ele>692.2</ele>
        <time>2023-04-24T08:09:45Z</time>
      </trkpt>
      <trkpt lat="43.32331" lon="5.69357">
        <ele>692.6</ele>
        <time>2023-04-24T08:09:55Z</time>
      </trkpt>
      <trkpt lat="43.32324" lon="5.69348">
        <ele>693.1</ele>
        <time>2023-04-24T08:10:08Z</time>
      </trkpt>
      <trkpt lat="43.32318" lon="5.69339">
        <ele>693.2</ele>
        <time>2023-04-24T08:10:16Z</time>
      </trkpt>
      <trkpt lat="43.32311" lon="5.6933">
        <ele>693.5</ele>
        <time>2023-04-24T08:10:24Z</time>
      </trkpt>
      <trkpt lat="43.32306" lon="5.6932">
        <ele>692.7</ele>
        <time>2023-04-24T08:10:40Z</time>
      </trkpt>
      <trkpt lat="43.32299" lon="5.6931">
        <ele>692.7</ele>
        <time>2023-04-24T08:10:51Z</time>
      </trkpt>
      <trkpt lat="43.32292" lon="5.69301">
        <ele>692.9</ele>
        <time>2023-04-24T08:11:00Z</time>
      </trkpt>
      <trkpt lat="43.32286" lon="5.69292">
        <ele>692.6</ele>
        <time>2023-04-24T08:11:11Z</time>
      </trkpt>
      <trkpt lat="43.32279" lon="5.69283">
        <ele>692.5</ele>
        <time>2023-04-24T08:11:21Z</time>
      </trkpt>
      <trkpt lat="43.32274" lon="5.69272">
        <ele>692.6</ele>
        <time>2023-04-24T08:11:31Z</time>
      </trkpt>
      <trkpt lat="43.32269" lon="5.69262">
        <ele>693.2</ele>
        <time>2023-04-24T08:11:40Z</time>
      </trkpt>
      <trkpt lat="43.3226" lon="5.69255">
        <ele>693.5</ele>
        <time>2023-04-24T08:11:48Z</time>
      </trkpt>
      <trkpt lat="43.32255" lon="5.69243">
        <ele>693.8</ele>
        <time>2023-04-24T08:11:56Z</time>
      </trkpt>
      <trkpt lat="43.32251" lon="5.69233">
        <ele>694.1</ele>
        <time>2023-04-24T08:12:04Z</time>
      </trkpt>
      <trkpt lat="43.32242" lon="5.69226">
        <ele>694.3</ele>
        <time>2023-04-24T08:12:12Z</time>
      </trkpt>
      <trkpt lat="43.32237" lon="5.69212">
        <ele>694.4</ele>
        <time>2023-04-24T08:12:22Z</time>
      </trkpt>
      <trkpt lat="43.32234" lon="5.69199">
        <ele>694.5</ele>
        <time>2023-04-24T08:12:30Z</time>
      </trkpt>
      <trkpt lat="43.32229" lon="5.69186">
        <ele>694.9</ele>
        <time>2023-04-24T08:12:39Z</time>
      </trkpt>
      <trkpt lat="43.32221" lon="5.69179">
        <ele>695.6</ele>
        <time>2023-04-24T08:12:49Z</time>
      </trkpt>
      <trkpt lat="43.32216" lon="5.69167">
        <ele>696.2</ele>
        <time>2023-04-24T08:12:59Z</time>
      </trkpt>
      <trkpt lat="43.3221" lon="5.69157">
        <ele>696.7</ele>
        <time>2023-04-24T08:13:08Z</time>
      </trkpt>
      <trkpt lat="43.32201" lon="5.69149">
        <ele>697.9</ele>
        <time>2023-04-24T08:13:19Z</time>
      </trkpt>
      <trkpt lat="43.32194" lon="5.69141">
        <ele>699.4</ele>
        <time>2023-04-24T08:13:29Z</time>
      </trkpt>
      <trkpt lat="43.32186" lon="5.69133">
        <ele>700.8</ele>
        <time>2023-04-24T08:13:38Z</time>
      </trkpt>
      <trkpt lat="43.32178" lon="5.69127">
        <ele>702.4</ele>
        <time>2023-04-24T08:13:49Z</time>
      </trkpt>
      <trkpt lat="43.32172" lon="5.69119">
        <ele>703.7</ele>
        <time>2023-04-24T08:14:01Z</time>
      </trkpt>
      <trkpt lat="43.32164" lon="5.69111">
        <ele>705.3</ele>
        <time>2023-04-24T08:14:16Z</time>
      </trkpt>
      <trkpt lat="43.32159" lon="5.69101">
        <ele>708.3</ele>
        <time>2023-04-24T08:14:55Z</time>
      </trkpt>
      <trkpt lat="43.32152" lon="5.69093">
        <ele>709.2</ele>
        <time>2023-04-24T08:15:08Z</time>
      </trkpt>
      <trkpt lat="43.32145" lon="5.69083">
        <ele>709.9</ele>
        <time>2023-04-24T08:15:19Z</time>
      </trkpt>
      <trkpt lat="43.32143" lon="5.69071">
        <ele>710.3</ele>
        <time>2023-04-24T08:15:29Z</time>
      </trkpt>
      <trkpt lat="43.32139" lon="5.69057">
        <ele>711.4</ele>
        <time>2023-04-24T08:15:39Z</time>
      </trkpt>
      <trkpt lat="43.32138" lon="5.69045">
        <ele>712.4</ele>
        <time>2023-04-24T08:15:50Z</time>
      </trkpt>
      <trkpt lat="43.32133" lon="5.69034">
        <ele>713.1</ele>
        <time>2023-04-24T08:16:03Z</time>
      </trkpt>
      <trkpt lat="43.32125" lon="5.69028">
        <ele>714.1</ele>
        <time>2023-04-24T08:16:25Z</time>
      </trkpt>
      <trkpt lat="43.32116" lon="5.69022">
        <ele>716.3</ele>
        <time>2023-04-24T08:16:39Z</time>
      </trkpt>
      <trkpt lat="43.32109" lon="5.69014">
        <ele>717.6</ele>
        <time>2023-04-24T08:17:00Z</time>
      </trkpt>
      <trkpt lat="43.32102" lon="5.69005">
        <ele>719.6</ele>
        <time>2023-04-24T08:17:14Z</time>
      </trkpt>
      <trkpt lat="43.32096" lon="5.68996">
        <ele>721.6</ele>
        <time>2023-04-24T08:17:37Z</time>
      </trkpt>
      <trkpt lat="43.32092" lon="5.68985">
        <ele>722.5</ele>
        <time>2023-04-24T08:17:50Z</time>
      </trkpt>
      <trkpt lat="43.32086" lon="5.68975">
        <ele>723</ele>
        <time>2023-04-24T08:18:04Z</time>
      </trkpt>
      <trkpt lat="43.32082" lon="5.68963">
        <ele>726.7</ele>
        <time>2023-04-24T08:18:22Z</time>
      </trkpt>
      <trkpt lat="43.32074" lon="5.68955">
        <ele>728.9</ele>
        <time>2023-04-24T08:18:34Z</time>
      </trkpt>
      <trkpt lat="43.32071" lon="5.68943">
        <ele>731.2</ele>
        <time>2023-04-24T08:19:05Z</time>
      </trkpt>
      <trkpt lat="43.32064" lon="5.68935">
        <ele>732.3</ele>
        <time>2023-04-24T08:19:16Z</time>
      </trkpt>
      <trkpt lat="43.32055" lon="5.6893">
        <ele>733.8</ele>
        <time>2023-04-24T08:19:32Z</time>
      </trkpt>
      <trkpt lat="43.32048" lon="5.68922">
        <ele>735.5</ele>
        <time>2023-04-24T08:19:48Z</time>
      </trkpt>
      <trkpt lat="43.3204" lon="5.68914">
        <ele>735.9</ele>
        <time>2023-04-24T08:19:58Z</time>
      </trkpt>
      <trkpt lat="43.32034" lon="5.68904">
        <ele>737.4</ele>
        <time>2023-04-24T08:20:08Z</time>
      </trkpt>
      <trkpt lat="43.3203" lon="5.68892">
        <ele>740.3</ele>
        <time>2023-04-24T08:20:22Z</time>
      </trkpt>
      <trkpt lat="43.32024" lon="5.68881">
        <ele>742.7</ele>
        <time>2023-04-24T08:20:41Z</time>
      </trkpt>
      <trkpt lat="43.32017" lon="5.68873">
        <ele>743</ele>
        <time>2023-04-24T08:20:52Z</time>
      </trkpt>
      <trkpt lat="43.32009" lon="5.68865">
        <ele>743.6</ele>
        <time>2023-04-24T08:21:04Z</time>
      </trkpt>
      <trkpt lat="43.32001" lon="5.68856">
        <ele>744.8</ele>
        <time>2023-04-24T08:21:13Z</time>
      </trkpt>
      <trkpt lat="43.31994" lon="5.68848">
        <ele>746</ele>
        <time>2023-04-24T08:21:22Z</time>
      </trkpt>
      <trkpt lat="43.31986" lon="5.68841">
        <ele>746.3</ele>
        <time>2023-04-24T08:21:31Z</time>
      </trkpt>
      <trkpt lat="43.31977" lon="5.68834">
        <ele>746.8</ele>
        <time>2023-04-24T08:21:43Z</time>
      </trkpt>
      <trkpt lat="43.3197" lon="5.68824">
        <ele>747.5</ele>
        <time>2023-04-24T08:21:52Z</time>
      </trkpt>
      <trkpt lat="43.31965" lon="5.68813">
        <ele>748.1</ele>
        <time>2023-04-24T08:22:00Z</time>
      </trkpt>
      <trkpt lat="43.31957" lon="5.68805">
        <ele>749</ele>
        <time>2023-04-24T08:22:11Z</time>
      </trkpt>
      <trkpt lat="43.31952" lon="5.68794">
        <ele>748.7</ele>
        <time>2023-04-24T08:22:23Z</time>
      </trkpt>
      <trkpt lat="43.3195" lon="5.68782">
        <ele>748.7</ele>
        <time>2023-04-24T08:22:31Z</time>
      </trkpt>
      <trkpt lat="43.31948" lon="5.68769">
        <ele>749</ele>
        <time>2023-04-24T08:22:40Z</time>
      </trkpt>
      <trkpt lat="43.31943" lon="5.68757">
        <ele>751.2</ele>
        <time>2023-04-24T08:22:53Z</time>
      </trkpt>
      <trkpt lat="43.3194" lon="5.68744">
        <ele>752.3</ele>
        <time>2023-04-24T08:23:24Z</time>
      </trkpt>
      <trkpt lat="43.31932" lon="5.68737">
        <ele>753.4</ele>
        <time>2023-04-24T08:23:48Z</time>
      </trkpt>
      <trkpt lat="43.31927" lon="5.68726">
        <ele>756.1</ele>
        <time>2023-04-24T08:24:15Z</time>
      </trkpt>
      <trkpt lat="43.31925" lon="5.68714">
        <ele>757.2</ele>
        <time>2023-04-24T08:24:29Z</time>
      </trkpt>
      <trkpt lat="43.31918" lon="5.68705">
        <ele>758.7</ele>
        <time>2023-04-24T08:25:02Z</time>
      </trkpt>
      <trkpt lat="43.31911" lon="5.68697">
        <ele>764.7</ele>
        <time>2023-04-24T08:27:47Z</time>
      </trkpt>
      <trkpt lat="43.31917" lon="5.68687">
        <ele>767.1</ele>
        <time>2023-04-24T08:30:44Z</time>
      </trkpt>
      <trkpt lat="43.31925" lon="5.68681">
        <ele>766.4</ele>
        <time>2023-04-24T08:32:58Z</time>
      </trkpt>
      <trkpt lat="43.31927" lon="5.68669">
        <ele>763.8</ele>
        <time>2023-04-24T08:33:10Z</time>
      </trkpt>
      <trkpt lat="43.31931" lon="5.68654">
        <ele>766.3</ele>
        <time>2023-04-24T08:33:22Z</time>
      </trkpt>
      <trkpt lat="43.31934" lon="5.68642">
        <ele>769.2</ele>
        <time>2023-04-24T08:33:31Z</time>
      </trkpt>
      <trkpt lat="43.31935" lon="5.68629">
        <ele>766.9</ele>
        <time>2023-04-24T08:33:51Z</time>
      </trkpt>
      <trkpt lat="43.31937" lon="5.68617">
        <ele>767.9</ele>
        <time>2023-04-24T08:34:13Z</time>
      </trkpt>
      <trkpt lat="43.31942" lon="5.68605">
        <ele>770.1</ele>
        <time>2023-04-24T08:34:27Z</time>
      </trkpt>
      <trkpt lat="43.31949" lon="5.68597">
        <ele>772.9</ele>
        <time>2023-04-24T08:34:48Z</time>
      </trkpt>
      <trkpt lat="43.31957" lon="5.68591">
        <ele>775.1</ele>
        <time>2023-04-24T08:35:15Z</time>
      </trkpt>
      <trkpt lat="43.31964" lon="5.68583">
        <ele>777.1</ele>
        <time>2023-04-24T08:35:31Z</time>
      </trkpt>
      <trkpt lat="43.31969" lon="5.68593">
        <ele>777.4</ele>
        <time>2023-04-24T08:35:46Z</time>
      </trkpt>
      <trkpt lat="43.31976" lon="5.68603">
        <ele>778.7</ele>
        <time>2023-04-24T08:36:19Z</time>
      </trkpt>
      <trkpt lat="43.31985" lon="5.68608">
        <ele>779</ele>
        <time>2023-04-24T08:36:35Z</time>
      </trkpt>
      <trkpt lat="43.31988" lon="5.6862">
        <ele>780.2</ele>
        <time>2023-04-24T08:37:10Z</time>
      </trkpt>
      <trkpt lat="43.31995" lon="5.68629">
        <ele>781</ele>
        <time>2023-04-24T08:37:23Z</time>
      </trkpt>
      <trkpt lat="43.32003" lon="5.68635">
        <ele>780.6</ele>
        <time>2023-04-24T08:37:44Z</time>
      </trkpt>
      <trkpt lat="43.32012" lon="5.68638">
        <ele>780.1</ele>
        <time>2023-04-24T08:37:59Z</time>
      </trkpt>
      <trkpt lat="43.32021" lon="5.68634">
        <ele>782.4</ele>
        <time>2023-04-24T08:38:23Z</time>
      </trkpt>
      <trkpt lat="43.3203" lon="5.68633">
        <ele>785</ele>
        <time>2023-04-24T08:39:20Z</time>
      </trkpt>
      <trkpt lat="43.32038" lon="5.68642">
        <ele>784.4</ele>
        <time>2023-04-24T08:39:35Z</time>
      </trkpt>
      <trkpt lat="43.32046" lon="5.68647">
        <ele>782.5</ele>
        <time>2023-04-24T08:39:50Z</time>
      </trkpt>
      <trkpt lat="43.32053" lon="5.68655">
        <ele>781.4</ele>
        <time>2023-04-24T08:40:26Z</time>
      </trkpt>
      <trkpt lat="43.32054" lon="5.68669">
        <ele>781.9</ele>
        <time>2023-04-24T08:40:58Z</time>
      </trkpt>
      <trkpt lat="43.3206" lon="5.68659">
        <ele>781.9</ele>
        <time>2023-04-24T08:41:15Z</time>
      </trkpt>
      <trkpt lat="43.32069" lon="5.68664">
        <ele>781.4</ele>
        <time>2023-04-24T08:41:41Z</time>
      </trkpt>
      <trkpt lat="43.32078" lon="5.68661">
        <ele>780.1</ele>
        <time>2023-04-24T08:41:56Z</time>
      </trkpt>
      <trkpt lat="43.32087" lon="5.68663">
        <ele>781.7</ele>
        <time>2023-04-24T08:42:14Z</time>
      </trkpt>
      <trkpt lat="43.32096" lon="5.68665">
        <ele>780.8</ele>
        <time>2023-04-24T08:42:36Z</time>
      </trkpt>
      <trkpt lat="43.32106" lon="5.68663">
        <ele>781.4</ele>
        <time>2023-04-24T08:42:52Z</time>
      </trkpt>
      <trkpt lat="43.32115" lon="5.68663">
        <ele>780.5</ele>
        <time>2023-04-24T08:43:09Z</time>
      </trkpt>
      <trkpt lat="43.32125" lon="5.6866">
        <ele>781.8</ele>
        <time>2023-04-24T08:43:21Z</time>
      </trkpt>
      <trkpt lat="43.32134" lon="5.68659">
        <ele>780.4</ele>
        <time>2023-04-24T08:43:38Z</time>
      </trkpt>
      <trkpt lat="43.32143" lon="5.68661">
        <ele>779.1</ele>
        <time>2023-04-24T08:43:56Z</time>
      </trkpt>
      <trkpt lat="43.32151" lon="5.68667">
        <ele>780.8</ele>
        <time>2023-04-24T08:44:13Z</time>
      </trkpt>
      <trkpt lat="43.3216" lon="5.68672">
        <ele>778.9</ele>
        <time>2023-04-24T08:44:29Z</time>
      </trkpt>
      <trkpt lat="43.32169" lon="5.68676">
        <ele>779.7</ele>
        <time>2023-04-24T08:44:44Z</time>
      </trkpt>
      <trkpt lat="43.32177" lon="5.68683">
        <ele>779.5</ele>
        <time>2023-04-24T08:44:59Z</time>
      </trkpt>
      <trkpt lat="43.32186" lon="5.68678">
        <ele>778.2</ele>
        <time>2023-04-24T08:45:10Z</time>
      </trkpt>
      <trkpt lat="43.32195" lon="5.6868">
        <ele>779.6</ele>
        <time>2023-04-24T08:45:24Z</time>
      </trkpt>
      <trkpt lat="43.32204" lon="5.6868">
        <ele>779.6</ele>
        <time>2023-04-24T08:45:35Z</time>
      </trkpt>
      <trkpt lat="43.32211" lon="5.68689">
        <ele>779.5</ele>
        <time>2023-04-24T08:45:55Z</time>
      </trkpt>
      <trkpt lat="43.3222" lon="5.6869">
        <ele>778.6</ele>
        <time>2023-04-24T08:46:17Z</time>
      </trkpt>
      <trkpt lat="43.32229" lon="5.68693">
        <ele>777.8</ele>
        <time>2023-04-24T08:46:29Z</time>
      </trkpt>
      <trkpt lat="43.32238" lon="5.68692">
        <ele>777.6</ele>
        <time>2023-04-24T08:46:43Z</time>
      </trkpt>
      <trkpt lat="43.32246" lon="5.68686">
        <ele>778.6</ele>
        <time>2023-04-24T08:46:55Z</time>
      </trkpt>
      <trkpt lat="43.32255" lon="5.68681">
        <ele>781.4</ele>
        <time>2023-04-24T08:47:07Z</time>
      </trkpt>
      <trkpt lat="43.32264" lon="5.68682">
        <ele>784</ele>
        <time>2023-04-24T08:47:23Z</time>
      </trkpt>
      <trkpt lat="43.32273" lon="5.68685">
        <ele>785.5</ele>
        <time>2023-04-24T08:48:18Z</time>
      </trkpt>
      <trkpt lat="43.32282" lon="5.68687">
        <ele>784.3</ele>
        <time>2023-04-24T08:48:41Z</time>
      </trkpt>
      <trkpt lat="43.32289" lon="5.68695">
        <ele>784.5</ele>
        <time>2023-04-24T08:48:53Z</time>
      </trkpt>
      <trkpt lat="43.32297" lon="5.68701">
        <ele>783.7</ele>
        <time>2023-04-24T08:49:09Z</time>
      </trkpt>
      <trkpt lat="43.32307" lon="5.68703">
        <ele>783.1</ele>
        <time>2023-04-24T08:49:23Z</time>
      </trkpt>
      <trkpt lat="43.32316" lon="5.68703">
        <ele>784</ele>
        <time>2023-04-24T08:49:47Z</time>
      </trkpt>
      <trkpt lat="43.32325" lon="5.68703">
        <ele>783.8</ele>
        <time>2023-04-24T08:50:04Z</time>
      </trkpt>
      <trkpt lat="43.32335" lon="5.68703">
        <ele>784.8</ele>
        <time>2023-04-24T08:50:15Z</time>
      </trkpt>
      <trkpt lat="43.32344" lon="5.68706">
        <ele>784.4</ele>
        <time>2023-04-24T08:50:35Z</time>
      </trkpt>
      <trkpt lat="43.32353" lon="5.68707">
        <ele>785.2</ele>
        <time>2023-04-24T08:50:45Z</time>
      </trkpt>
      <trkpt lat="43.32362" lon="5.68709">
        <ele>785.7</ele>
        <time>2023-04-24T08:50:56Z</time>
      </trkpt>
      <trkpt lat="43.32371" lon="5.6871">
        <ele>786.9</ele>
        <time>2023-04-24T08:51:27Z</time>
      </trkpt>
      <trkpt lat="43.32381" lon="5.68712">
        <ele>787.3</ele>
        <time>2023-04-24T08:51:45Z</time>
      </trkpt>
      <trkpt lat="43.3239" lon="5.68714">
        <ele>787.2</ele>
        <time>2023-04-24T08:51:57Z</time>
      </trkpt>
      <trkpt lat="43.32398" lon="5.6872">
        <ele>785.6</ele>
        <time>2023-04-24T08:52:13Z</time>
      </trkpt>
      <trkpt lat="43.32407" lon="5.68722">
        <ele>783.3</ele>
        <time>2023-04-24T08:52:27Z</time>
      </trkpt>
      <trkpt lat="43.32417" lon="5.68725">
        <ele>783.5</ele>
        <time>2023-04-24T08:52:39Z</time>
      </trkpt>
      <trkpt lat="43.32426" lon="5.68724">
        <ele>785.4</ele>
        <time>2023-04-24T08:53:03Z</time>
      </trkpt>
      <trkpt lat="43.32435" lon="5.68721">
        <ele>786.9</ele>
        <time>2023-04-24T08:53:19Z</time>
      </trkpt>
      <trkpt lat="43.32444" lon="5.68722">
        <ele>789.4</ele>
        <time>2023-04-24T08:53:38Z</time>
      </trkpt>
      <trkpt lat="43.32453" lon="5.68723">
        <ele>790.2</ele>
        <time>2023-04-24T08:53:56Z</time>
      </trkpt>
      <trkpt lat="43.32462" lon="5.68726">
        <ele>790</ele>
        <time>2023-04-24T08:54:15Z</time>
      </trkpt>
      <trkpt lat="43.32471" lon="5.68728">
        <ele>787.9</ele>
        <time>2023-04-24T08:54:33Z</time>
      </trkpt>
      <trkpt lat="43.3248" lon="5.68733">
        <ele>787.2</ele>
        <time>2023-04-24T08:54:44Z</time>
      </trkpt>
      <trkpt lat="43.32488" lon="5.68739">
        <ele>786.1</ele>
        <time>2023-04-24T08:54:58Z</time>
      </trkpt>
      <trkpt lat="43.32497" lon="5.68745">
        <ele>785.3</ele>
        <time>2023-04-24T08:55:13Z</time>
      </trkpt>
      <trkpt lat="43.32505" lon="5.68749">
        <ele>785.2</ele>
        <time>2023-04-24T08:55:29Z</time>
      </trkpt>
      <trkpt lat="43.32514" lon="5.68752">
        <ele>785.3</ele>
        <time>2023-04-24T08:55:41Z</time>
      </trkpt>
      <trkpt lat="43.32523" lon="5.68756">
        <ele>785.6</ele>
        <time>2023-04-24T08:55:54Z</time>
      </trkpt>
      <trkpt lat="43.32532" lon="5.68755">
        <ele>787.5</ele>
        <time>2023-04-24T08:56:09Z</time>
      </trkpt>
      <trkpt lat="43.32542" lon="5.68752">
        <ele>791.6</ele>
        <time>2023-04-24T08:56:31Z</time>
      </trkpt>
      <trkpt lat="43.3255" lon="5.68746">
        <ele>794.9</ele>
        <time>2023-04-24T09:01:23Z</time>
      </trkpt>
      <trkpt lat="43.32559" lon="5.68748">
        <ele>795.6</ele>
        <time>2023-04-24T09:02:15Z</time>
      </trkpt>
      <trkpt lat="43.32567" lon="5.68753">
        <ele>793.8</ele>
        <time>2023-04-24T09:02:39Z</time>
      </trkpt>
      <trkpt lat="43.32577" lon="5.68756">
        <ele>790.9</ele>
        <time>2023-04-24T09:03:04Z</time>
      </trkpt>
      <trkpt lat="43.32586" lon="5.68756">
        <ele>789</ele>
        <time>2023-04-24T09:03:14Z</time>
      </trkpt>
      <trkpt lat="43.32595" lon="5.68755">
        <ele>788.5</ele>
        <time>2023-04-24T09:03:31Z</time>
      </trkpt>
      <trkpt lat="43.32605" lon="5.68756">
        <ele>788.2</ele>
        <time>2023-04-24T09:03:44Z</time>
      </trkpt>
      <trkpt lat="43.32614" lon="5.68756">
        <ele>786.5</ele>
        <time>2023-04-24T09:03:55Z</time>
      </trkpt>
      <trkpt lat="43.32624" lon="5.68755">
        <ele>786.7</ele>
        <time>2023-04-24T09:04:08Z</time>
      </trkpt>
      <trkpt lat="43.32633" lon="5.68756">
        <ele>786.3</ele>
        <time>2023-04-24T09:04:19Z</time>
      </trkpt>
      <trkpt lat="43.32643" lon="5.68755">
        <ele>787</ele>
        <time>2023-04-24T09:04:30Z</time>
      </trkpt>
      <trkpt lat="43.32651" lon="5.68752">
        <ele>787</ele>
        <time>2023-04-24T09:04:37Z</time>
      </trkpt>
      <trkpt lat="43.32659" lon="5.68745">
        <ele>788.3</ele>
        <time>2023-04-24T09:05:08Z</time>
      </trkpt>
      <trkpt lat="43.32667" lon="5.68739">
        <ele>787.7</ele>
        <time>2023-04-24T09:05:21Z</time>
      </trkpt>
      <trkpt lat="43.32658" lon="5.68739">
        <ele>790.1</ele>
        <time>2023-04-24T09:08:22Z</time>
      </trkpt>
      <trkpt lat="43.32649" lon="5.68737">
        <ele>792.3</ele>
        <time>2023-04-24T09:08:42Z</time>
      </trkpt>
      <trkpt lat="43.32639" lon="5.68737">
        <ele>793.9</ele>
        <time>2023-04-24T09:08:57Z</time>
      </trkpt>
      <trkpt lat="43.32629" lon="5.68739">
        <ele>794.8</ele>
        <time>2023-04-24T09:09:10Z</time>
      </trkpt>
      <trkpt lat="43.3262" lon="5.68736">
        <ele>795.5</ele>
        <time>2023-04-24T09:09:22Z</time>
      </trkpt>
      <trkpt lat="43.32611" lon="5.68733">
        <ele>794.5</ele>
        <time>2023-04-24T09:09:36Z</time>
      </trkpt>
      <trkpt lat="43.32602" lon="5.68728">
        <ele>802.4</ele>
        <time>2023-04-24T09:10:00Z</time>
      </trkpt>
      <trkpt lat="43.32593" lon="5.68725">
        <ele>803.8</ele>
        <time>2023-04-24T09:10:21Z</time>
      </trkpt>
      <trkpt lat="43.32584" lon="5.68722">
        <ele>804.6</ele>
        <time>2023-04-24T09:10:32Z</time>
      </trkpt>
      <trkpt lat="43.32575" lon="5.68718">
        <ele>806.6</ele>
        <time>2023-04-24T09:10:50Z</time>
      </trkpt>
      <trkpt lat="43.32566" lon="5.68712">
        <ele>808.4</ele>
        <time>2023-04-24T09:11:20Z</time>
      </trkpt>
      <trkpt lat="43.32559" lon="5.68704">
        <ele>813.3</ele>
        <time>2023-04-24T09:11:41Z</time>
      </trkpt>
      <trkpt lat="43.3255" lon="5.68703">
        <ele>814.1</ele>
        <time>2023-04-24T09:11:52Z</time>
      </trkpt>
      <trkpt lat="43.32548" lon="5.68691">
        <ele>814.2</ele>
        <time>2023-04-24T09:12:15Z</time>
      </trkpt>
      <trkpt lat="43.32545" lon="5.68679">
        <ele>817</ele>
        <time>2023-04-24T09:13:30Z</time>
      </trkpt>
      <trkpt lat="43.32537" lon="5.68672">
        <ele>821.7</ele>
        <time>2023-04-24T09:15:01Z</time>
      </trkpt>
      <trkpt lat="43.32535" lon="5.6866">
        <ele>823.8</ele>
        <time>2023-04-24T09:16:20Z</time>
      </trkpt>
      <trkpt lat="43.32532" lon="5.68648">
        <ele>825.7</ele>
        <time>2023-04-24T09:17:04Z</time>
      </trkpt>
      <trkpt lat="43.32529" lon="5.68635">
        <ele>828.2</ele>
        <time>2023-04-24T09:17:26Z</time>
      </trkpt>
      <trkpt lat="43.3252" lon="5.68636">
        <ele>829.3</ele>
        <time>2023-04-24T09:18:29Z</time>
      </trkpt>
      <trkpt lat="43.32517" lon="5.68648">
        <ele>827.2</ele>
        <time>2023-04-24T09:18:58Z</time>
      </trkpt>
      <trkpt lat="43.32509" lon="5.68643">
        <ele>828.9</ele>
        <time>2023-04-24T09:19:13Z</time>
      </trkpt>
      <trkpt lat="43.32507" lon="5.6863">
        <ele>829.7</ele>
        <time>2023-04-24T09:19:25Z</time>
      </trkpt>
      <trkpt lat="43.32503" lon="5.68619">
        <ele>828.4</ele>
        <time>2023-04-24T09:20:55Z</time>
      </trkpt>
      <trkpt lat="43.32496" lon="5.68611">
        <ele>829.2</ele>
        <time>2023-04-24T09:23:45Z</time>
      </trkpt>
      <trkpt lat="43.32487" lon="5.68612">
        <ele>829.7</ele>
        <time>2023-04-24T09:24:00Z</time>
      </trkpt>
      <trkpt lat="43.32478" lon="5.6861">
        <ele>828.9</ele>
        <time>2023-04-24T09:24:11Z</time>
      </trkpt>
      <trkpt lat="43.32469" lon="5.68607">
        <ele>826.2</ele>
        <time>2023-04-24T09:24:26Z</time>
      </trkpt>
      <trkpt lat="43.32461" lon="5.68601">
        <ele>829.2</ele>
        <time>2023-04-24T09:24:40Z</time>
      </trkpt>
      <trkpt lat="43.32451" lon="5.68602">
        <ele>828.1</ele>
        <time>2023-04-24T09:25:33Z</time>
      </trkpt>
      <trkpt lat="43.32443" lon="5.68606">
        <ele>829.9</ele>
        <time>2023-04-24T09:26:06Z</time>
      </trkpt>
      <trkpt lat="43.32435" lon="5.68613">
        <ele>831.5</ele>
        <time>2023-04-24T09:29:05Z</time>
      </trkpt>
      <trkpt lat="43.32425" lon="5.6861">
        <ele>831</ele>
        <time>2023-04-24T09:29:16Z</time>
      </trkpt>
      <trkpt lat="43.32416" lon="5.6861">
        <ele>830.5</ele>
        <time>2023-04-24T09:29:51Z</time>
      </trkpt>
      <trkpt lat="43.32406" lon="5.68611">
        <ele>830.9</ele>
        <time>2023-04-24T09:30:04Z</time>
      </trkpt>
      <trkpt lat="43.32397" lon="5.68613">
        <ele>834</ele>
        <time>2023-04-24T09:31:57Z</time>
      </trkpt>
      <trkpt lat="43.32388" lon="5.6861">
        <ele>834.6</ele>
        <time>2023-04-24T09:32:06Z</time>
      </trkpt>
      <trkpt lat="43.32379" lon="5.68609">
        <ele>834.6</ele>
        <time>2023-04-24T09:32:16Z</time>
      </trkpt>
      <trkpt lat="43.32371" lon="5.68604">
        <ele>835.7</ele>
        <time>2023-04-24T09:32:41Z</time>
      </trkpt>
      <trkpt lat="43.32361" lon="5.68603">
        <ele>836.1</ele>
        <time>2023-04-24T09:32:52Z</time>
      </trkpt>
      <trkpt lat="43.32352" lon="5.68605">
        <ele>837.6</ele>
        <time>2023-04-24T09:33:20Z</time>
      </trkpt>
      <trkpt lat="43.32343" lon="5.68609">
        <ele>838.5</ele>
        <time>2023-04-24T09:33:32Z</time>
      </trkpt>
      <trkpt lat="43.32337" lon="5.68619">
        <ele>837.8</ele>
        <time>2023-04-24T09:33:46Z</time>
      </trkpt>
      <trkpt lat="43.32329" lon="5.68623">
        <ele>839.8</ele>
        <time>2023-04-24T09:34:15Z</time>
      </trkpt>
      <trkpt lat="43.3232" lon="5.6862">
        <ele>838.9</ele>
        <time>2023-04-24T09:34:36Z</time>
      </trkpt>
      <trkpt lat="43.3231" lon="5.68619">
        <ele>839.8</ele>
        <time>2023-04-24T09:34:49Z</time>
      </trkpt>
      <trkpt lat="43.32301" lon="5.68621">
        <ele>838.4</ele>
        <time>2023-04-24T09:35:01Z</time>
      </trkpt>
      <trkpt lat="43.32292" lon="5.68626">
        <ele>836.9</ele>
        <time>2023-04-24T09:35:12Z</time>
      </trkpt>
      <trkpt lat="43.32284" lon="5.68632">
        <ele>836.5</ele>
        <time>2023-04-24T09:35:21Z</time>
      </trkpt>
      <trkpt lat="43.32275" lon="5.68637">
        <ele>836.9</ele>
        <time>2023-04-24T09:35:30Z</time>
      </trkpt>
      <trkpt lat="43.32266" lon="5.68636">
        <ele>836.2</ele>
        <time>2023-04-24T09:35:41Z</time>
      </trkpt>
      <trkpt lat="43.32257" lon="5.68639">
        <ele>835.3</ele>
        <time>2023-04-24T09:35:54Z</time>
      </trkpt>
      <trkpt lat="43.32247" lon="5.68638">
        <ele>835.2</ele>
        <time>2023-04-24T09:36:05Z</time>
      </trkpt>
      <trkpt lat="43.32238" lon="5.68637">
        <ele>835</ele>
        <time>2023-04-24T09:36:16Z</time>
      </trkpt>
      <trkpt lat="43.3223" lon="5.68631">
        <ele>834.8</ele>
        <time>2023-04-24T09:36:25Z</time>
      </trkpt>
      <trkpt lat="43.3222" lon="5.68628">
        <ele>834.7</ele>
        <time>2023-04-24T09:36:44Z</time>
      </trkpt>
      <trkpt lat="43.32212" lon="5.6862">
        <ele>834.8</ele>
        <time>2023-04-24T09:36:54Z</time>
      </trkpt>
      <trkpt lat="43.32204" lon="5.68615">
        <ele>834.1</ele>
        <time>2023-04-24T09:39:01Z</time>
      </trkpt>
      <trkpt lat="43.32194" lon="5.68612">
        <ele>835.2</ele>
        <time>2023-04-24T09:39:16Z</time>
      </trkpt>
      <trkpt lat="43.32185" lon="5.68609">
        <ele>834</ele>
        <time>2023-04-24T09:39:30Z</time>
      </trkpt>
      <trkpt lat="43.32175" lon="5.68605">
        <ele>839.5</ele>
        <time>2023-04-24T09:39:41Z</time>
      </trkpt>
      <trkpt lat="43.32166" lon="5.68602">
        <ele>838.4</ele>
        <time>2023-04-24T09:39:54Z</time>
      </trkpt>
      <trkpt lat="43.32157" lon="5.68598">
        <ele>838.5</ele>
        <time>2023-04-24T09:40:17Z</time>
      </trkpt>
      <trkpt lat="43.32148" lon="5.68593">
        <ele>839</ele>
        <time>2023-04-24T09:40:35Z</time>
      </trkpt>
      <trkpt lat="43.32141" lon="5.68587">
        <ele>840.2</ele>
        <time>2023-04-24T09:40:49Z</time>
      </trkpt>
      <trkpt lat="43.32136" lon="5.68575">
        <ele>840.2</ele>
        <time>2023-04-24T09:41:03Z</time>
      </trkpt>
      <trkpt lat="43.3213" lon="5.68566">
        <ele>839.4</ele>
        <time>2023-04-24T09:41:24Z</time>
      </trkpt>
      <trkpt lat="43.32125" lon="5.68554">
        <ele>841.4</ele>
        <time>2023-04-24T09:41:39Z</time>
      </trkpt>
      <trkpt lat="43.32121" lon="5.68542">
        <ele>841.7</ele>
        <time>2023-04-24T09:41:50Z</time>
      </trkpt>
      <trkpt lat="43.32117" lon="5.68531">
        <ele>841.2</ele>
        <time>2023-04-24T09:42:01Z</time>
      </trkpt>
      <trkpt lat="43.32115" lon="5.68518">
        <ele>840.6</ele>
        <time>2023-04-24T09:42:16Z</time>
      </trkpt>
      <trkpt lat="43.32108" lon="5.68508">
        <ele>842.6</ele>
        <time>2023-04-24T09:43:11Z</time>
      </trkpt>
      <trkpt lat="43.32104" lon="5.68496">
        <ele>842.5</ele>
        <time>2023-04-24T09:43:22Z</time>
      </trkpt>
      <trkpt lat="43.32096" lon="5.68488">
        <ele>842.2</ele>
        <time>2023-04-24T09:43:50Z</time>
      </trkpt>
      <trkpt lat="43.3209" lon="5.68478">
        <ele>842.9</ele>
        <time>2023-04-24T09:44:02Z</time>
      </trkpt>
      <trkpt lat="43.32083" lon="5.68469">
        <ele>843.1</ele>
        <time>2023-04-24T09:44:14Z</time>
      </trkpt>
      <trkpt lat="43.32075" lon="5.68461">
        <ele>842.9</ele>
        <time>2023-04-24T09:44:31Z</time>
      </trkpt>
      <trkpt lat="43.32069" lon="5.68452">
        <ele>843.3</ele>
        <time>2023-04-24T09:44:44Z</time>
      </trkpt>
      <trkpt lat="43.32061" lon="5.68445">
        <ele>843.5</ele>
        <time>2023-04-24T09:44:52Z</time>
      </trkpt>
      <trkpt lat="43.32053" lon="5.68439">
        <ele>844.3</ele>
        <time>2023-04-24T09:45:02Z</time>
      </trkpt>
      <trkpt lat="43.32044" lon="5.68434">
        <ele>844.1</ele>
        <time>2023-04-24T09:45:19Z</time>
      </trkpt>
      <trkpt lat="43.32035" lon="5.6843">
        <ele>844</ele>
        <time>2023-04-24T09:45:28Z</time>
      </trkpt>
      <trkpt lat="43.32029" lon="5.6842">
        <ele>844.8</ele>
        <time>2023-04-24T09:45:40Z</time>
      </trkpt>
      <trkpt lat="43.32021" lon="5.68414">
        <ele>845.5</ele>
        <time>2023-04-24T09:45:50Z</time>
      </trkpt>
      <trkpt lat="43.3202" lon="5.68401">
        <ele>846.7</ele>
        <time>2023-04-24T09:46:07Z</time>
      </trkpt>
      <trkpt lat="43.32012" lon="5.68394">
        <ele>846.1</ele>
        <time>2023-04-24T09:46:19Z</time>
      </trkpt>
      <trkpt lat="43.32004" lon="5.68386">
        <ele>847</ele>
        <time>2023-04-24T09:46:29Z</time>
      </trkpt>
      <trkpt lat="43.31995" lon="5.68384">
        <ele>846.2</ele>
        <time>2023-04-24T09:46:41Z</time>
      </trkpt>
      <trkpt lat="43.31986" lon="5.68381">
        <ele>844.5</ele>
        <time>2023-04-24T09:46:52Z</time>
      </trkpt>
      <trkpt lat="43.31978" lon="5.68387">
        <ele>844.4</ele>
        <time>2023-04-24T09:47:07Z</time>
      </trkpt>
      <trkpt lat="43.31968" lon="5.68388">
        <ele>844.2</ele>
        <time>2023-04-24T09:47:17Z</time>
      </trkpt>
      <trkpt lat="43.3196" lon="5.68382">
        <ele>842.7</ele>
        <time>2023-04-24T09:47:29Z</time>
      </trkpt>
      <trkpt lat="43.31953" lon="5.68375">
        <ele>844.6</ele>
        <time>2023-04-24T09:47:41Z</time>
      </trkpt>
      <trkpt lat="43.31944" lon="5.6837">
        <ele>846.3</ele>
        <time>2023-04-24T09:47:53Z</time>
      </trkpt>
      <trkpt lat="43.31934" lon="5.6837">
        <ele>849.3</ele>
        <time>2023-04-24T09:48:09Z</time>
      </trkpt>
      <trkpt lat="43.31925" lon="5.68372">
        <ele>850.6</ele>
        <time>2023-04-24T09:48:24Z</time>
      </trkpt>
      <trkpt lat="43.31915" lon="5.6837">
        <ele>851.6</ele>
        <time>2023-04-24T09:48:38Z</time>
      </trkpt>
      <trkpt lat="43.31905" lon="5.68369">
        <ele>851</ele>
        <time>2023-04-24T09:49:04Z</time>
      </trkpt>
      <trkpt lat="43.31896" lon="5.68365">
        <ele>855.4</ele>
        <time>2023-04-24T09:49:17Z</time>
      </trkpt>
      <trkpt lat="43.31888" lon="5.68359">
        <ele>856</ele>
        <time>2023-04-24T09:49:29Z</time>
      </trkpt>
      <trkpt lat="43.3188" lon="5.68353">
        <ele>857.2</ele>
        <time>2023-04-24T09:49:42Z</time>
      </trkpt>
      <trkpt lat="43.31885" lon="5.68342">
        <ele>857.3</ele>
        <time>2023-04-24T09:53:14Z</time>
      </trkpt>
      <trkpt lat="43.31891" lon="5.68333">
        <ele>857</ele>
        <time>2023-04-24T09:53:23Z</time>
      </trkpt>
      <trkpt lat="43.31896" lon="5.68322">
        <ele>856.9</ele>
        <time>2023-04-24T09:53:41Z</time>
      </trkpt>
      <trkpt lat="43.31901" lon="5.68311">
        <ele>856.5</ele>
        <time>2023-04-24T09:53:53Z</time>
      </trkpt>
      <trkpt lat="43.31906" lon="5.68301">
        <ele>855.7</ele>
        <time>2023-04-24T09:54:07Z</time>
      </trkpt>
      <trkpt lat="43.3191" lon="5.68289">
        <ele>855.6</ele>
        <time>2023-04-24T09:54:21Z</time>
      </trkpt>
      <trkpt lat="43.3191" lon="5.68275">
        <ele>856.5</ele>
        <time>2023-04-24T09:54:38Z</time>
      </trkpt>
      <trkpt lat="43.3191" lon="5.68263">
        <ele>856.3</ele>
        <time>2023-04-24T09:54:48Z</time>
      </trkpt>
      <trkpt lat="43.31911" lon="5.68251">
        <ele>856.3</ele>
        <time>2023-04-24T09:54:56Z</time>
      </trkpt>
      <trkpt lat="43.31911" lon="5.68238">
        <ele>856.4</ele>
        <time>2023-04-24T09:55:09Z</time>
      </trkpt>
      <trkpt lat="43.31909" lon="5.68225">
        <ele>856.6</ele>
        <time>2023-04-24T09:55:19Z</time>
      </trkpt>
      <trkpt lat="43.31911" lon="5.68213">
        <ele>859.9</ele>
        <time>2023-04-24T09:55:37Z</time>
      </trkpt>
      <trkpt lat="43.31919" lon="5.68208">
        <ele>858.8</ele>
        <time>2023-04-24T09:55:49Z</time>
      </trkpt>
      <trkpt lat="43.31911" lon="5.68204">
        <ele>856.3</ele>
        <time>2023-04-24T09:56:45Z</time>
      </trkpt>
      <trkpt lat="43.31906" lon="5.68192">
        <ele>857.3</ele>
        <time>2023-04-24T09:57:56Z</time>
      </trkpt>
      <trkpt lat="43.31906" lon="5.68179">
        <ele>857.6</ele>
        <time>2023-04-24T09:58:08Z</time>
      </trkpt>
      <trkpt lat="43.31905" lon="5.68166">
        <ele>858.1</ele>
        <time>2023-04-24T09:58:21Z</time>
      </trkpt>
      <trkpt lat="43.31899" lon="5.68156">
        <ele>858.2</ele>
        <time>2023-04-24T09:58:35Z</time>
      </trkpt>
      <trkpt lat="43.31908" lon="5.6816">
        <ele>858.5</ele>
        <time>2023-04-24T09:59:43Z</time>
      </trkpt>
      <trkpt lat="43.31914" lon="5.68149">
        <ele>859.5</ele>
        <time>2023-04-24T10:00:38Z</time>
      </trkpt>
      <trkpt lat="43.31917" lon="5.68137">
        <ele>858.3</ele>
        <time>2023-04-24T10:01:03Z</time>
      </trkpt>
      <trkpt lat="43.31918" lon="5.68124">
        <ele>858.3</ele>
        <time>2023-04-24T10:01:13Z</time>
      </trkpt>
      <trkpt lat="43.31919" lon="5.68112">
        <ele>858.3</ele>
        <time>2023-04-24T10:01:28Z</time>
      </trkpt>
      <trkpt lat="43.31922" lon="5.68099">
        <ele>858.5</ele>
        <time>2023-04-24T10:01:38Z</time>
      </trkpt>
      <trkpt lat="43.31926" lon="5.68087">
        <ele>859.5</ele>
        <time>2023-04-24T10:01:49Z</time>
      </trkpt>
      <trkpt lat="43.31929" lon="5.68075">
        <ele>859.9</ele>
        <time>2023-04-24T10:02:06Z</time>
      </trkpt>
      <trkpt lat="43.31935" lon="5.68065">
        <ele>858.3</ele>
        <time>2023-04-24T10:02:20Z</time>
      </trkpt>
      <trkpt lat="43.31937" lon="5.68053">
        <ele>858.3</ele>
        <time>2023-04-24T10:02:30Z</time>
      </trkpt>
      <trkpt lat="43.31934" lon="5.68041">
        <ele>858</ele>
        <time>2023-04-24T10:02:41Z</time>
      </trkpt>
      <trkpt lat="43.31932" lon="5.68027">
        <ele>858.6</ele>
        <time>2023-04-24T10:02:52Z</time>
      </trkpt>
      <trkpt lat="43.31935" lon="5.68015">
        <ele>857.7</ele>
        <time>2023-04-24T10:03:02Z</time>
      </trkpt>
      <trkpt lat="43.31933" lon="5.68002">
        <ele>858.6</ele>
        <time>2023-04-24T10:03:15Z</time>
      </trkpt>
      <trkpt lat="43.31933" lon="5.67989">
        <ele>858.1</ele>
        <time>2023-04-24T10:03:26Z</time>
      </trkpt>
      <trkpt lat="43.31935" lon="5.67977">
        <ele>857.9</ele>
        <time>2023-04-24T10:03:35Z</time>
      </trkpt>
      <trkpt lat="43.3194" lon="5.67966">
        <ele>857.6</ele>
        <time>2023-04-24T10:03:45Z</time>
      </trkpt>
      <trkpt lat="43.3194" lon="5.67953">
        <ele>857.7</ele>
        <time>2023-04-24T10:03:55Z</time>
      </trkpt>
      <trkpt lat="43.31942" lon="5.67939">
        <ele>857.9</ele>
        <time>2023-04-24T10:04:09Z</time>
      </trkpt>
      <trkpt lat="43.31943" lon="5.67927">
        <ele>860.5</ele>
        <time>2023-04-24T10:04:19Z</time>
      </trkpt>
      <trkpt lat="43.31945" lon="5.67915">
        <ele>859.6</ele>
        <time>2023-04-24T10:04:31Z</time>
      </trkpt>
      <trkpt lat="43.31947" lon="5.67902">
        <ele>859.5</ele>
        <time>2023-04-24T10:04:44Z</time>
      </trkpt>
      <trkpt lat="43.31944" lon="5.6789">
        <ele>859.9</ele>
        <time>2023-04-24T10:04:54Z</time>
      </trkpt>
      <trkpt lat="43.31945" lon="5.67877">
        <ele>860.4</ele>
        <time>2023-04-24T10:05:04Z</time>
      </trkpt>
      <trkpt lat="43.31945" lon="5.67864">
        <ele>861</ele>
        <time>2023-04-24T10:05:15Z</time>
      </trkpt>
      <trkpt lat="43.31941" lon="5.67853">
        <ele>861.2</ele>
        <time>2023-04-24T10:05:25Z</time>
      </trkpt>
      <trkpt lat="43.3194" lon="5.6784">
        <ele>861.4</ele>
        <time>2023-04-24T10:05:38Z</time>
      </trkpt>
      <trkpt lat="43.31938" lon="5.67827">
        <ele>862.5</ele>
        <time>2023-04-24T10:05:54Z</time>
      </trkpt>
      <trkpt lat="43.31931" lon="5.67819">
        <ele>863.1</ele>
        <time>2023-04-24T10:06:03Z</time>
      </trkpt>
      <trkpt lat="43.31937" lon="5.67809">
        <ele>864.4</ele>
        <time>2023-04-24T10:06:20Z</time>
      </trkpt>
      <trkpt lat="43.31937" lon="5.67797">
        <ele>865.6</ele>
        <time>2023-04-24T10:06:52Z</time>
      </trkpt>
      <trkpt lat="43.31938" lon="5.67784">
        <ele>866.9</ele>
        <time>2023-04-24T10:07:08Z</time>
      </trkpt>
      <trkpt lat="43.31937" lon="5.67771">
        <ele>867.5</ele>
        <time>2023-04-24T10:07:19Z</time>
      </trkpt>
      <trkpt lat="43.31935" lon="5.67758">
        <ele>869.2</ele>
        <time>2023-04-24T10:07:35Z</time>
      </trkpt>
      <trkpt lat="43.31933" lon="5.67746">
        <ele>869.7</ele>
        <time>2023-04-24T10:07:57Z</time>
      </trkpt>
      <trkpt lat="43.31936" lon="5.67733">
        <ele>870.9</ele>
        <time>2023-04-24T10:08:12Z</time>
      </trkpt>
      <trkpt lat="43.31936" lon="5.6772">
        <ele>872.5</ele>
        <time>2023-04-24T10:08:29Z</time>
      </trkpt>
      <trkpt lat="43.31938" lon="5.67707">
        <ele>874.4</ele>
        <time>2023-04-24T10:09:14Z</time>
      </trkpt>
      <trkpt lat="43.31939" lon="5.67695">
        <ele>873.9</ele>
        <time>2023-04-24T10:09:57Z</time>
      </trkpt>
      <trkpt lat="43.31945" lon="5.67685">
        <ele>875.6</ele>
        <time>2023-04-24T10:11:11Z</time>
      </trkpt>
      <trkpt lat="43.31938" lon="5.67676">
        <ele>880.4</ele>
        <time>2023-04-24T10:11:47Z</time>
      </trkpt>
      <trkpt lat="43.3194" lon="5.67664">
        <ele>881.2</ele>
        <time>2023-04-24T10:12:25Z</time>
      </trkpt>
      <trkpt lat="43.31938" lon="5.67652">
        <ele>883.8</ele>
        <time>2023-04-24T10:12:41Z</time>
      </trkpt>
      <trkpt lat="43.31939" lon="5.6764">
        <ele>885.2</ele>
        <time>2023-04-24T10:14:20Z</time>
      </trkpt>
      <trkpt lat="43.31938" lon="5.67627">
        <ele>887.2</ele>
        <time>2023-04-24T10:14:47Z</time>
      </trkpt>
      <trkpt lat="43.31936" lon="5.67615">
        <ele>890.1</ele>
        <time>2023-04-24T10:15:35Z</time>
      </trkpt>
      <trkpt lat="43.31941" lon="5.67604">
        <ele>892</ele>
        <time>2023-04-24T10:16:05Z</time>
      </trkpt>
      <trkpt lat="43.31936" lon="5.67593">
        <ele>893.6</ele>
        <time>2023-04-24T10:16:25Z</time>
      </trkpt>
      <trkpt lat="43.31937" lon="5.6758">
        <ele>894.8</ele>
        <time>2023-04-24T10:16:41Z</time>
      </trkpt>
      <trkpt lat="43.3194" lon="5.67568">
        <ele>894.1</ele>
        <time>2023-04-24T10:16:55Z</time>
      </trkpt>
      <trkpt lat="43.31941" lon="5.67556">
        <ele>896.8</ele>
        <time>2023-04-24T10:17:08Z</time>
      </trkpt>
      <trkpt lat="43.3194" lon="5.67543">
        <ele>901.3</ele>
        <time>2023-04-24T10:17:26Z</time>
      </trkpt>
      <trkpt lat="43.31943" lon="5.67531">
        <ele>902.2</ele>
        <time>2023-04-24T10:17:38Z</time>
      </trkpt>
      <trkpt lat="43.31947" lon="5.67519">
        <ele>903.7</ele>
        <time>2023-04-24T10:17:51Z</time>
      </trkpt>
      <trkpt lat="43.31946" lon="5.67507">
        <ele>906</ele>
        <time>2023-04-24T10:18:27Z</time>
      </trkpt>
      <trkpt lat="43.31952" lon="5.67497">
        <ele>908.4</ele>
        <time>2023-04-24T10:19:23Z</time>
      </trkpt>
      <trkpt lat="43.31954" lon="5.67484">
        <ele>910.2</ele>
        <time>2023-04-24T10:20:15Z</time>
      </trkpt>
      <trkpt lat="43.31955" lon="5.67472">
        <ele>911.5</ele>
        <time>2023-04-24T10:20:38Z</time>
      </trkpt>
      <trkpt lat="43.31953" lon="5.67459">
        <ele>912.3</ele>
        <time>2023-04-24T10:20:51Z</time>
      </trkpt>
      <trkpt lat="43.31954" lon="5.67447">
        <ele>912.9</ele>
        <time>2023-04-24T10:21:14Z</time>
      </trkpt>
      <trkpt lat="43.31956" lon="5.67434">
        <ele>914.5</ele>
        <time>2023-04-24T10:21:34Z</time>
      </trkpt>
      <trkpt lat="43.31954" lon="5.67422">
        <ele>914.5</ele>
        <time>2023-04-24T10:21:58Z</time>
      </trkpt>
      <trkpt lat="43.3195" lon="5.6741">
        <ele>913.8</ele>
        <time>2023-04-24T10:23:13Z</time>
      </trkpt>
      <trkpt lat="43.31947" lon="5.67398">
        <ele>913.3</ele>
        <time>2023-04-24T10:23:46Z</time>
      </trkpt>
      <trkpt lat="43.31942" lon="5.67387">
        <ele>915.6</ele>
        <time>2023-04-24T10:23:58Z</time>
      </trkpt>
      <trkpt lat="43.31938" lon="5.67376">
        <ele>913.4</ele>
        <time>2023-04-24T10:24:51Z</time>
      </trkpt>
      <trkpt lat="43.31934" lon="5.67365">
        <ele>913.3</ele>
        <time>2023-04-24T10:25:26Z</time>
      </trkpt>
      <trkpt lat="43.31933" lon="5.67353">
        <ele>913.1</ele>
        <time>2023-04-24T10:25:48Z</time>
      </trkpt>
      <trkpt lat="43.31929" lon="5.67342">
        <ele>915.2</ele>
        <time>2023-04-24T10:26:03Z</time>
      </trkpt>
      <trkpt lat="43.31925" lon="5.67331">
        <ele>914.8</ele>
        <time>2023-04-24T10:26:44Z</time>
      </trkpt>
      <trkpt lat="43.31921" lon="5.67319">
        <ele>912.8</ele>
        <time>2023-04-24T10:27:22Z</time>
      </trkpt>
      <trkpt lat="43.31917" lon="5.67308">
        <ele>919.4</ele>
        <time>2023-04-24T10:27:45Z</time>
      </trkpt>
      <trkpt lat="43.31913" lon="5.67297">
        <ele>916.9</ele>
        <time>2023-04-24T10:27:59Z</time>
      </trkpt>
      <trkpt lat="43.31911" lon="5.67284">
        <ele>914.9</ele>
        <time>2023-04-24T10:28:22Z</time>
      </trkpt>
      <trkpt lat="43.31907" lon="5.67273">
        <ele>913.6</ele>
        <time>2023-04-24T10:28:34Z</time>
      </trkpt>
      <trkpt lat="43.31906" lon="5.6726">
        <ele>914.7</ele>
        <time>2023-04-24T10:28:51Z</time>
      </trkpt>
      <trkpt lat="43.31905" lon="5.67247">
        <ele>915.6</ele>
        <time>2023-04-24T10:29:10Z</time>
      </trkpt>
      <trkpt lat="43.31902" lon="5.67235">
        <ele>916.9</ele>
        <time>2023-04-24T10:29:23Z</time>
      </trkpt>
      <trkpt lat="43.31901" lon="5.67223">
        <ele>917.5</ele>
        <time>2023-04-24T10:29:36Z</time>
      </trkpt>
      <trkpt lat="43.31896" lon="5.67211">
        <ele>917.5</ele>
        <time>2023-04-24T10:29:58Z</time>
      </trkpt>
      <trkpt lat="43.31896" lon="5.67198">
        <ele>916.5</ele>
        <time>2023-04-24T10:30:27Z</time>
      </trkpt>
      <trkpt lat="43.31894" lon="5.67186">
        <ele>919.7</ele>
        <time>2023-04-24T10:30:38Z</time>
      </trkpt>
      <trkpt lat="43.31893" lon="5.67174">
        <ele>926.2</ele>
        <time>2023-04-24T10:30:52Z</time>
      </trkpt>
      <trkpt lat="43.31893" lon="5.67161">
        <ele>927.2</ele>
        <time>2023-04-24T10:31:04Z</time>
      </trkpt>
      <trkpt lat="43.31893" lon="5.67149">
        <ele>924.8</ele>
        <time>2023-04-24T10:31:21Z</time>
      </trkpt>
      <trkpt lat="43.31892" lon="5.67136">
        <ele>924.6</ele>
        <time>2023-04-24T10:31:33Z</time>
      </trkpt>
      <trkpt lat="43.31889" lon="5.67123">
        <ele>928.1</ele>
        <time>2023-04-24T10:31:44Z</time>
      </trkpt>
      <trkpt lat="43.31891" lon="5.6711">
        <ele>928.1</ele>
        <time>2023-04-24T10:31:58Z</time>
      </trkpt>
      <trkpt lat="43.31892" lon="5.67098">
        <ele>927.3</ele>
        <time>2023-04-24T10:32:14Z</time>
      </trkpt>
      <trkpt lat="43.31894" lon="5.67086">
        <ele>926.5</ele>
        <time>2023-04-24T10:32:25Z</time>
      </trkpt>
      <trkpt lat="43.31897" lon="5.67074">
        <ele>929.2</ele>
        <time>2023-04-24T10:32:35Z</time>
      </trkpt>
      <trkpt lat="43.31896" lon="5.67061">
        <ele>928.7</ele>
        <time>2023-04-24T10:32:46Z</time>
      </trkpt>
      <trkpt lat="43.31899" lon="5.67049">
        <ele>929</ele>
        <time>2023-04-24T10:32:57Z</time>
      </trkpt>
      <trkpt lat="43.319" lon="5.67035">
        <ele>929.2</ele>
        <time>2023-04-24T10:33:10Z</time>
      </trkpt>
      <trkpt lat="43.31901" lon="5.67023">
        <ele>928.2</ele>
        <time>2023-04-24T10:33:21Z</time>
      </trkpt>
      <trkpt lat="43.31903" lon="5.6701">
        <ele>928.1</ele>
        <time>2023-04-24T10:33:33Z</time>
      </trkpt>
      <trkpt lat="43.31901" lon="5.66998">
        <ele>927.1</ele>
        <time>2023-04-24T10:33:57Z</time>
      </trkpt>
      <trkpt lat="43.31895" lon="5.66989">
        <ele>924.3</ele>
        <time>2023-04-24T10:38:53Z</time>
      </trkpt>
      <trkpt lat="43.31888" lon="5.66979">
        <ele>926</ele>
        <time>2023-04-24T10:39:22Z</time>
      </trkpt>
      <trkpt lat="43.31894" lon="5.6699">
        <ele>928</ele>
        <time>2023-04-24T10:42:02Z</time>
      </trkpt>
      <trkpt lat="43.31901" lon="5.66999">
        <ele>929.4</ele>
        <time>2023-04-24T10:42:17Z</time>
      </trkpt>
      <trkpt lat="43.31905" lon="5.67011">
        <ele>927.6</ele>
        <time>2023-04-24T10:42:29Z</time>
      </trkpt>
      <trkpt lat="43.31905" lon="5.67023">
        <ele>928.8</ele>
        <time>2023-04-24T10:42:42Z</time>
      </trkpt>
      <trkpt lat="43.31904" lon="5.67035">
        <ele>929.9</ele>
        <time>2023-04-24T10:42:56Z</time>
      </trkpt>
      <trkpt lat="43.31903" lon="5.67048">
        <ele>930.3</ele>
        <time>2023-04-24T10:43:08Z</time>
      </trkpt>
      <trkpt lat="43.319" lon="5.6706">
        <ele>929.4</ele>
        <time>2023-04-24T10:43:21Z</time>
      </trkpt>
      <trkpt lat="43.31897" lon="5.67072">
        <ele>928.7</ele>
        <time>2023-04-24T10:43:31Z</time>
      </trkpt>
      <trkpt lat="43.31896" lon="5.67084">
        <ele>928.5</ele>
        <time>2023-04-24T10:43:42Z</time>
      </trkpt>
      <trkpt lat="43.31893" lon="5.67096">
        <ele>927.7</ele>
        <time>2023-04-24T10:43:52Z</time>
      </trkpt>
      <trkpt lat="43.31894" lon="5.6711">
        <ele>927.3</ele>
        <time>2023-04-24T10:44:03Z</time>
      </trkpt>
      <trkpt lat="43.31892" lon="5.67122">
        <ele>927.2</ele>
        <time>2023-04-24T10:44:14Z</time>
      </trkpt>
      <trkpt lat="43.31895" lon="5.67135">
        <ele>926.4</ele>
        <time>2023-04-24T10:44:27Z</time>
      </trkpt>
      <trkpt lat="43.31893" lon="5.67148">
        <ele>925.8</ele>
        <time>2023-04-24T10:45:02Z</time>
      </trkpt>
      <trkpt lat="43.31893" lon="5.67161">
        <ele>925.3</ele>
        <time>2023-04-24T10:45:12Z</time>
      </trkpt>
      <trkpt lat="43.31894" lon="5.67173">
        <ele>924.5</ele>
        <time>2023-04-24T10:45:24Z</time>
      </trkpt>
      <trkpt lat="43.31893" lon="5.67187">
        <ele>922.5</ele>
        <time>2023-04-24T10:45:36Z</time>
      </trkpt>
      <trkpt lat="43.31895" lon="5.67199">
        <ele>920.7</ele>
        <time>2023-04-24T10:45:49Z</time>
      </trkpt>
      <trkpt lat="43.31898" lon="5.67212">
        <ele>921.3</ele>
        <time>2023-04-24T10:46:03Z</time>
      </trkpt>
      <trkpt lat="43.31901" lon="5.67224">
        <ele>920.9</ele>
        <time>2023-04-24T10:46:16Z</time>
      </trkpt>
      <trkpt lat="43.31902" lon="5.67236">
        <ele>918.9</ele>
        <time>2023-04-24T10:46:32Z</time>
      </trkpt>
      <trkpt lat="43.31906" lon="5.67249">
        <ele>914.9</ele>
        <time>2023-04-24T10:47:02Z</time>
      </trkpt>
      <trkpt lat="43.31908" lon="5.67261">
        <ele>915.5</ele>
        <time>2023-04-24T10:47:15Z</time>
      </trkpt>
      <trkpt lat="43.31909" lon="5.67274">
        <ele>917.5</ele>
        <time>2023-04-24T10:47:34Z</time>
      </trkpt>
      <trkpt lat="43.31913" lon="5.67286">
        <ele>916.9</ele>
        <time>2023-04-24T10:47:49Z</time>
      </trkpt>
      <trkpt lat="43.31916" lon="5.67298">
        <ele>920.9</ele>
        <time>2023-04-24T10:48:01Z</time>
      </trkpt>
      <trkpt lat="43.3192" lon="5.67309">
        <ele>916.8</ele>
        <time>2023-04-24T10:48:13Z</time>
      </trkpt>
      <trkpt lat="43.31922" lon="5.67321">
        <ele>915.9</ele>
        <time>2023-04-24T10:48:31Z</time>
      </trkpt>
      <trkpt lat="43.31925" lon="5.67333">
        <ele>916.3</ele>
        <time>2023-04-24T10:48:53Z</time>
      </trkpt>
      <trkpt lat="43.3193" lon="5.67345">
        <ele>915.3</ele>
        <time>2023-04-24T10:49:17Z</time>
      </trkpt>
      <trkpt lat="43.31936" lon="5.67355">
        <ele>912.6</ele>
        <time>2023-04-24T10:49:33Z</time>
      </trkpt>
      <trkpt lat="43.31936" lon="5.67369">
        <ele>916.4</ele>
        <time>2023-04-24T10:49:47Z</time>
      </trkpt>
      <trkpt lat="43.3194" lon="5.67381">
        <ele>915.8</ele>
        <time>2023-04-24T10:50:00Z</time>
      </trkpt>
      <trkpt lat="43.31944" lon="5.67393">
        <ele>916.1</ele>
        <time>2023-04-24T10:50:14Z</time>
      </trkpt>
      <trkpt lat="43.31948" lon="5.67404">
        <ele>916.3</ele>
        <time>2023-04-24T10:50:27Z</time>
      </trkpt>
      <trkpt lat="43.31952" lon="5.67416">
        <ele>916.5</ele>
        <time>2023-04-24T10:50:39Z</time>
      </trkpt>
      <trkpt lat="43.31956" lon="5.67428">
        <ele>916.3</ele>
        <time>2023-04-24T10:50:53Z</time>
      </trkpt>
      <trkpt lat="43.31958" lon="5.67441">
        <ele>917.8</ele>
        <time>2023-04-24T10:51:37Z</time>
      </trkpt>
      <trkpt lat="43.31955" lon="5.67454">
        <ele>916.7</ele>
        <time>2023-04-24T10:52:00Z</time>
      </trkpt>
      <trkpt lat="43.31956" lon="5.67466">
        <ele>916.6</ele>
        <time>2023-04-24T10:52:20Z</time>
      </trkpt>
      <trkpt lat="43.31957" lon="5.67478">
        <ele>914.1</ele>
        <time>2023-04-24T10:52:53Z</time>
      </trkpt>
      <trkpt lat="43.31954" lon="5.6749">
        <ele>912.5</ele>
        <time>2023-04-24T10:53:16Z</time>
      </trkpt>
      <trkpt lat="43.3195" lon="5.67501">
        <ele>910</ele>
        <time>2023-04-24T10:53:55Z</time>
      </trkpt>
      <trkpt lat="43.31948" lon="5.67514">
        <ele>908</ele>
        <time>2023-04-24T10:55:16Z</time>
      </trkpt>
      <trkpt lat="43.31945" lon="5.67527">
        <ele>905.8</ele>
        <time>2023-04-24T10:55:28Z</time>
      </trkpt>
      <trkpt lat="43.31941" lon="5.67538">
        <ele>904.6</ele>
        <time>2023-04-24T10:55:41Z</time>
      </trkpt>
      <trkpt lat="43.31941" lon="5.67551">
        <ele>902.2</ele>
        <time>2023-04-24T10:55:58Z</time>
      </trkpt>
      <trkpt lat="43.3194" lon="5.67564">
        <ele>900.6</ele>
        <time>2023-04-24T10:56:09Z</time>
      </trkpt>
      <trkpt lat="43.31943" lon="5.67576">
        <ele>898.8</ele>
        <time>2023-04-24T10:57:01Z</time>
      </trkpt>
      <trkpt lat="43.31942" lon="5.67589">
        <ele>898.4</ele>
        <time>2023-04-24T10:57:12Z</time>
      </trkpt>
      <trkpt lat="43.31941" lon="5.67602">
        <ele>896.1</ele>
        <time>2023-04-24T10:57:33Z</time>
      </trkpt>
      <trkpt lat="43.31939" lon="5.67614">
        <ele>894</ele>
        <time>2023-04-24T10:57:48Z</time>
      </trkpt>
      <trkpt lat="43.31931" lon="5.6762">
        <ele>892.2</ele>
        <time>2023-04-24T10:58:14Z</time>
      </trkpt>
      <trkpt lat="43.31923" lon="5.67614">
        <ele>891.6</ele>
        <time>2023-04-24T10:59:23Z</time>
      </trkpt>
      <trkpt lat="43.31931" lon="5.67609">
        <ele>891</ele>
        <time>2023-04-24T11:05:21Z</time>
      </trkpt>
      <trkpt lat="43.31928" lon="5.6762">
        <ele>895.5</ele>
        <time>2023-04-24T11:44:25Z</time>
      </trkpt>
      <trkpt lat="43.31935" lon="5.67612">
        <ele>895.9</ele>
        <time>2023-04-24T11:47:50Z</time>
      </trkpt>
      <trkpt lat="43.31928" lon="5.6762">
        <ele>897.3</ele>
        <time>2023-04-24T11:50:11Z</time>
      </trkpt>
      <trkpt lat="43.31937" lon="5.67619">
        <ele>897</ele>
        <time>2023-04-24T11:57:58Z</time>
      </trkpt>
      <trkpt lat="43.3194" lon="5.6763">
        <ele>894.6</ele>
        <time>2023-04-24T11:59:05Z</time>
      </trkpt>
      <trkpt lat="43.3194" lon="5.67643">
        <ele>892.6</ele>
        <time>2023-04-24T11:59:24Z</time>
      </trkpt>
      <trkpt lat="43.31941" lon="5.67655">
        <ele>890.6</ele>
        <time>2023-04-24T11:59:43Z</time>
      </trkpt>
      <trkpt lat="43.31941" lon="5.67668">
        <ele>888.6</ele>
        <time>2023-04-24T12:00:06Z</time>
      </trkpt>
      <trkpt lat="43.31945" lon="5.6768">
        <ele>886.3</ele>
        <time>2023-04-24T12:00:29Z</time>
      </trkpt>
      <trkpt lat="43.31943" lon="5.67693">
        <ele>885.6</ele>
        <time>2023-04-24T12:00:46Z</time>
      </trkpt>
      <trkpt lat="43.31941" lon="5.67705">
        <ele>883.7</ele>
        <time>2023-04-24T12:01:01Z</time>
      </trkpt>
      <trkpt lat="43.31937" lon="5.67717">
        <ele>882.2</ele>
        <time>2023-04-24T12:01:47Z</time>
      </trkpt>
      <trkpt lat="43.31936" lon="5.67729">
        <ele>881.3</ele>
        <time>2023-04-24T12:02:00Z</time>
      </trkpt>
      <trkpt lat="43.31935" lon="5.67742">
        <ele>880.2</ele>
        <time>2023-04-24T12:02:14Z</time>
      </trkpt>
      <trkpt lat="43.31937" lon="5.67755">
        <ele>877.7</ele>
        <time>2023-04-24T12:02:32Z</time>
      </trkpt>
      <trkpt lat="43.31939" lon="5.67767">
        <ele>876.3</ele>
        <time>2023-04-24T12:02:46Z</time>
      </trkpt>
      <trkpt lat="43.31937" lon="5.6778">
        <ele>874.1</ele>
        <time>2023-04-24T12:02:59Z</time>
      </trkpt>
      <trkpt lat="43.31938" lon="5.67793">
        <ele>873.2</ele>
        <time>2023-04-24T12:03:13Z</time>
      </trkpt>
      <trkpt lat="43.31938" lon="5.67806">
        <ele>871.9</ele>
        <time>2023-04-24T12:03:27Z</time>
      </trkpt>
      <trkpt lat="43.31939" lon="5.67819">
        <ele>870.3</ele>
        <time>2023-04-24T12:03:44Z</time>
      </trkpt>
      <trkpt lat="43.31942" lon="5.67832">
        <ele>870.4</ele>
        <time>2023-04-24T12:03:56Z</time>
      </trkpt>
      <trkpt lat="43.31945" lon="5.67844">
        <ele>870.5</ele>
        <time>2023-04-24T12:04:06Z</time>
      </trkpt>
      <trkpt lat="43.31947" lon="5.67856">
        <ele>870.3</ele>
        <time>2023-04-24T12:04:15Z</time>
      </trkpt>
      <trkpt lat="43.31947" lon="5.67869">
        <ele>869.8</ele>
        <time>2023-04-24T12:04:26Z</time>
      </trkpt>
      <trkpt lat="43.31947" lon="5.67882">
        <ele>869.3</ele>
        <time>2023-04-24T12:04:37Z</time>
      </trkpt>
      <trkpt lat="43.31948" lon="5.67895">
        <ele>868.2</ele>
        <time>2023-04-24T12:05:15Z</time>
      </trkpt>
      <trkpt lat="43.31951" lon="5.67908">
        <ele>868.6</ele>
        <time>2023-04-24T12:05:24Z</time>
      </trkpt>
      <trkpt lat="43.31954" lon="5.6792">
        <ele>868.8</ele>
        <time>2023-04-24T12:05:34Z</time>
      </trkpt>
      <trkpt lat="43.3195" lon="5.67932">
        <ele>868.6</ele>
        <time>2023-04-24T12:05:44Z</time>
      </trkpt>
      <trkpt lat="43.31946" lon="5.67943">
        <ele>868.2</ele>
        <time>2023-04-24T12:05:54Z</time>
      </trkpt>
      <trkpt lat="43.31944" lon="5.67957">
        <ele>868.2</ele>
        <time>2023-04-24T12:06:02Z</time>
      </trkpt>
      <trkpt lat="43.31942" lon="5.67969">
        <ele>868</ele>
        <time>2023-04-24T12:06:16Z</time>
      </trkpt>
      <trkpt lat="43.31939" lon="5.67981">
        <ele>867.8</ele>
        <time>2023-04-24T12:06:27Z</time>
      </trkpt>
      <trkpt lat="43.31937" lon="5.67993">
        <ele>867.1</ele>
        <time>2023-04-24T12:06:37Z</time>
      </trkpt>
      <trkpt lat="43.31938" lon="5.68007">
        <ele>866.5</ele>
        <time>2023-04-24T12:06:46Z</time>
      </trkpt>
      <trkpt lat="43.31938" lon="5.68019">
        <ele>867.1</ele>
        <time>2023-04-24T12:06:55Z</time>
      </trkpt>
      <trkpt lat="43.31938" lon="5.68032">
        <ele>866.8</ele>
        <time>2023-04-24T12:07:07Z</time>
      </trkpt>
      <trkpt lat="43.3194" lon="5.68044">
        <ele>866.6</ele>
        <time>2023-04-24T12:07:18Z</time>
      </trkpt>
      <trkpt lat="43.31941" lon="5.68057">
        <ele>867.8</ele>
        <time>2023-04-24T12:07:27Z</time>
      </trkpt>
      <trkpt lat="43.31937" lon="5.68069">
        <ele>865.9</ele>
        <time>2023-04-24T12:07:38Z</time>
      </trkpt>
      <trkpt lat="43.31931" lon="5.68079">
        <ele>865.8</ele>
        <time>2023-04-24T12:07:50Z</time>
      </trkpt>
      <trkpt lat="43.31928" lon="5.68092">
        <ele>866.3</ele>
        <time>2023-04-24T12:08:01Z</time>
      </trkpt>
      <trkpt lat="43.31925" lon="5.68105">
        <ele>866.4</ele>
        <time>2023-04-24T12:08:12Z</time>
      </trkpt>
      <trkpt lat="43.31922" lon="5.68118">
        <ele>866</ele>
        <time>2023-04-24T12:08:23Z</time>
      </trkpt>
      <trkpt lat="43.3192" lon="5.68131">
        <ele>862.9</ele>
        <time>2023-04-24T12:08:34Z</time>
      </trkpt>
      <trkpt lat="43.31919" lon="5.68143">
        <ele>862.2</ele>
        <time>2023-04-24T12:08:44Z</time>
      </trkpt>
      <trkpt lat="43.31915" lon="5.68155">
        <ele>865.8</ele>
        <time>2023-04-24T12:08:55Z</time>
      </trkpt>
      <trkpt lat="43.31911" lon="5.68167">
        <ele>866.7</ele>
        <time>2023-04-24T12:09:05Z</time>
      </trkpt>
      <trkpt lat="43.3191" lon="5.6818">
        <ele>866.7</ele>
        <time>2023-04-24T12:09:14Z</time>
      </trkpt>
      <trkpt lat="43.31911" lon="5.68192">
        <ele>866.4</ele>
        <time>2023-04-24T12:09:25Z</time>
      </trkpt>
      <trkpt lat="43.31916" lon="5.68203">
        <ele>864.8</ele>
        <time>2023-04-24T12:10:19Z</time>
      </trkpt>
      <trkpt lat="43.31923" lon="5.68213">
        <ele>863.4</ele>
        <time>2023-04-24T12:10:35Z</time>
      </trkpt>
      <trkpt lat="43.31927" lon="5.68224">
        <ele>862.7</ele>
        <time>2023-04-24T12:10:45Z</time>
      </trkpt>
      <trkpt lat="43.31933" lon="5.68215">
        <ele>862.8</ele>
        <time>2023-04-24T12:11:24Z</time>
      </trkpt>
      <trkpt lat="43.31925" lon="5.68209">
        <ele>863.9</ele>
        <time>2023-04-24T12:12:39Z</time>
      </trkpt>
      <trkpt lat="43.31915" lon="5.68206">
        <ele>864.4</ele>
        <time>2023-04-24T12:12:53Z</time>
      </trkpt>
      <trkpt lat="43.31911" lon="5.68217">
        <ele>865.1</ele>
        <time>2023-04-24T12:14:14Z</time>
      </trkpt>
      <trkpt lat="43.31913" lon="5.6823">
        <ele>864.8</ele>
        <time>2023-04-24T12:14:26Z</time>
      </trkpt>
      <trkpt lat="43.31913" lon="5.68243">
        <ele>864.2</ele>
        <time>2023-04-24T12:14:38Z</time>
      </trkpt>
      <trkpt lat="43.31911" lon="5.68255">
        <ele>863.7</ele>
        <time>2023-04-24T12:14:48Z</time>
      </trkpt>
      <trkpt lat="43.31911" lon="5.68269">
        <ele>863.2</ele>
        <time>2023-04-24T12:14:59Z</time>
      </trkpt>
      <trkpt lat="43.31913" lon="5.68281">
        <ele>862.6</ele>
        <time>2023-04-24T12:15:10Z</time>
      </trkpt>
      <trkpt lat="43.31911" lon="5.68295">
        <ele>861.8</ele>
        <time>2023-04-24T12:15:20Z</time>
      </trkpt>
      <trkpt lat="43.31906" lon="5.68305">
        <ele>861.2</ele>
        <time>2023-04-24T12:15:29Z</time>
      </trkpt>
      <trkpt lat="43.31903" lon="5.68318">
        <ele>860.9</ele>
        <time>2023-04-24T12:15:39Z</time>
      </trkpt>
      <trkpt lat="43.31899" lon="5.68329">
        <ele>859.5</ele>
        <time>2023-04-24T12:15:49Z</time>
      </trkpt>
      <trkpt lat="43.31892" lon="5.68339">
        <ele>860.1</ele>
        <time>2023-04-24T12:15:58Z</time>
      </trkpt>
      <trkpt lat="43.31886" lon="5.68349">
        <ele>862.9</ele>
        <time>2023-04-24T12:16:08Z</time>
      </trkpt>
      <trkpt lat="43.3188" lon="5.68359">
        <ele>864.3</ele>
        <time>2023-04-24T12:16:20Z</time>
      </trkpt>
      <trkpt lat="43.31873" lon="5.68366">
        <ele>864.5</ele>
        <time>2023-04-24T12:16:47Z</time>
      </trkpt>
      <trkpt lat="43.31863" lon="5.68368">
        <ele>864.1</ele>
        <time>2023-04-24T12:16:58Z</time>
      </trkpt>
      <trkpt lat="43.31858" lon="5.68379">
        <ele>864</ele>
        <time>2023-04-24T12:17:10Z</time>
      </trkpt>
      <trkpt lat="43.31852" lon="5.68389">
        <ele>863.7</ele>
        <time>2023-04-24T12:17:34Z</time>
      </trkpt>
      <trkpt lat="43.31845" lon="5.68399">
        <ele>866.2</ele>
        <time>2023-04-24T12:17:48Z</time>
      </trkpt>
      <trkpt lat="43.31841" lon="5.6841">
        <ele>863.5</ele>
        <time>2023-04-24T12:18:03Z</time>
      </trkpt>
      <trkpt lat="43.31833" lon="5.68417">
        <ele>861.3</ele>
        <time>2023-04-24T12:18:32Z</time>
      </trkpt>
      <trkpt lat="43.31824" lon="5.6842">
        <ele>861</ele>
        <time>2023-04-24T12:18:41Z</time>
      </trkpt>
      <trkpt lat="43.31815" lon="5.68426">
        <ele>860.3</ele>
        <time>2023-04-24T12:18:52Z</time>
      </trkpt>
      <trkpt lat="43.31805" lon="5.68428">
        <ele>859.7</ele>
        <time>2023-04-24T12:19:03Z</time>
      </trkpt>
      <trkpt lat="43.31796" lon="5.6843">
        <ele>859.9</ele>
        <time>2023-04-24T12:19:15Z</time>
      </trkpt>
      <trkpt lat="43.31787" lon="5.68432">
        <ele>859.7</ele>
        <time>2023-04-24T12:19:24Z</time>
      </trkpt>
      <trkpt lat="43.31777" lon="5.68435">
        <ele>860.7</ele>
        <time>2023-04-24T12:19:36Z</time>
      </trkpt>
      <trkpt lat="43.31769" lon="5.68442">
        <ele>861.3</ele>
        <time>2023-04-24T12:19:46Z</time>
      </trkpt>
      <trkpt lat="43.31761" lon="5.68448">
        <ele>862.2</ele>
        <time>2023-04-24T12:19:56Z</time>
      </trkpt>
      <trkpt lat="43.31758" lon="5.6846">
        <ele>864.5</ele>
        <time>2023-04-24T12:20:12Z</time>
      </trkpt>
      <trkpt lat="43.31755" lon="5.68473">
        <ele>865.7</ele>
        <time>2023-04-24T12:20:23Z</time>
      </trkpt>
      <trkpt lat="43.3175" lon="5.68484">
        <ele>867.4</ele>
        <time>2023-04-24T12:20:33Z</time>
      </trkpt>
      <trkpt lat="43.31743" lon="5.68494">
        <ele>868.6</ele>
        <time>2023-04-24T12:20:45Z</time>
      </trkpt>
      <trkpt lat="43.31739" lon="5.68505">
        <ele>868.9</ele>
        <time>2023-04-24T12:20:57Z</time>
      </trkpt>
      <trkpt lat="43.31732" lon="5.68515">
        <ele>869.2</ele>
        <time>2023-04-24T12:21:08Z</time>
      </trkpt>
      <trkpt lat="43.31725" lon="5.68524">
        <ele>869.1</ele>
        <time>2023-04-24T12:21:18Z</time>
      </trkpt>
      <trkpt lat="43.31717" lon="5.68531">
        <ele>868.9</ele>
        <time>2023-04-24T12:21:28Z</time>
      </trkpt>
      <trkpt lat="43.31707" lon="5.68532">
        <ele>867.5</ele>
        <time>2023-04-24T12:21:39Z</time>
      </trkpt>
      <trkpt lat="43.31698" lon="5.6853">
        <ele>866.5</ele>
        <time>2023-04-24T12:21:49Z</time>
      </trkpt>
      <trkpt lat="43.31689" lon="5.68533">
        <ele>865.9</ele>
        <time>2023-04-24T12:22:00Z</time>
      </trkpt>
      <trkpt lat="43.3168" lon="5.68536">
        <ele>865.3</ele>
        <time>2023-04-24T12:22:08Z</time>
      </trkpt>
      <trkpt lat="43.31671" lon="5.68538">
        <ele>864.7</ele>
        <time>2023-04-24T12:22:17Z</time>
      </trkpt>
      <trkpt lat="43.31661" lon="5.6854">
        <ele>864.1</ele>
        <time>2023-04-24T12:22:29Z</time>
      </trkpt>
      <trkpt lat="43.31654" lon="5.68547">
        <ele>862.2</ele>
        <time>2023-04-24T12:23:18Z</time>
      </trkpt>
      <trkpt lat="43.31647" lon="5.68557">
        <ele>862.7</ele>
        <time>2023-04-24T12:24:54Z</time>
      </trkpt>
      <trkpt lat="43.31644" lon="5.68569">
        <ele>861.6</ele>
        <time>2023-04-24T12:25:16Z</time>
      </trkpt>
      <trkpt lat="43.31643" lon="5.68582">
        <ele>861.1</ele>
        <time>2023-04-24T12:25:40Z</time>
      </trkpt>
      <trkpt lat="43.3164" lon="5.68594">
        <ele>860.8</ele>
        <time>2023-04-24T12:25:50Z</time>
      </trkpt>
      <trkpt lat="43.31636" lon="5.68605">
        <ele>861.8</ele>
        <time>2023-04-24T12:26:17Z</time>
      </trkpt>
      <trkpt lat="43.31635" lon="5.68618">
        <ele>862.7</ele>
        <time>2023-04-24T12:26:31Z</time>
      </trkpt>
      <trkpt lat="43.31632" lon="5.6863">
        <ele>862.5</ele>
        <time>2023-04-24T12:26:47Z</time>
      </trkpt>
      <trkpt lat="43.31631" lon="5.68643">
        <ele>864.3</ele>
        <time>2023-04-24T12:27:03Z</time>
      </trkpt>
      <trkpt lat="43.31626" lon="5.68654">
        <ele>866.6</ele>
        <time>2023-04-24T12:27:28Z</time>
      </trkpt>
      <trkpt lat="43.31624" lon="5.68666">
        <ele>866.1</ele>
        <time>2023-04-24T12:28:00Z</time>
      </trkpt>
      <trkpt lat="43.31628" lon="5.68678">
        <ele>872</ele>
        <time>2023-04-24T12:29:19Z</time>
      </trkpt>
      <trkpt lat="43.3163" lon="5.6869">
        <ele>872.8</ele>
        <time>2023-04-24T12:29:54Z</time>
      </trkpt>
      <trkpt lat="43.31633" lon="5.68703">
        <ele>875.3</ele>
        <time>2023-04-24T12:30:45Z</time>
      </trkpt>
      <trkpt lat="43.31634" lon="5.68716">
        <ele>875.8</ele>
        <time>2023-04-24T12:31:16Z</time>
      </trkpt>
      <trkpt lat="43.31638" lon="5.68728">
        <ele>875.8</ele>
        <time>2023-04-24T12:31:29Z</time>
      </trkpt>
      <trkpt lat="43.31641" lon="5.68739">
        <ele>876.4</ele>
        <time>2023-04-24T12:31:41Z</time>
      </trkpt>
      <trkpt lat="43.31646" lon="5.6875">
        <ele>876.6</ele>
        <time>2023-04-24T12:32:32Z</time>
      </trkpt>
      <trkpt lat="43.3165" lon="5.68763">
        <ele>875.6</ele>
        <time>2023-04-24T12:32:44Z</time>
      </trkpt>
      <trkpt lat="43.31648" lon="5.68775">
        <ele>876.8</ele>
        <time>2023-04-24T12:32:55Z</time>
      </trkpt>
      <trkpt lat="43.31646" lon="5.68787">
        <ele>871.9</ele>
        <time>2023-04-24T12:33:12Z</time>
      </trkpt>
      <trkpt lat="43.31644" lon="5.688">
        <ele>869.6</ele>
        <time>2023-04-24T12:33:30Z</time>
      </trkpt>
      <trkpt lat="43.31643" lon="5.68813">
        <ele>869.3</ele>
        <time>2023-04-24T12:33:42Z</time>
      </trkpt>
      <trkpt lat="43.31641" lon="5.68825">
        <ele>868.3</ele>
        <time>2023-04-24T12:33:53Z</time>
      </trkpt>
      <trkpt lat="43.3164" lon="5.68838">
        <ele>872.4</ele>
        <time>2023-04-24T12:34:04Z</time>
      </trkpt>
      <trkpt lat="43.31634" lon="5.68848">
        <ele>874.6</ele>
        <time>2023-04-24T12:34:35Z</time>
      </trkpt>
      <trkpt lat="43.31627" lon="5.68856">
        <ele>874.4</ele>
        <time>2023-04-24T12:34:46Z</time>
      </trkpt>
      <trkpt lat="43.3162" lon="5.68867">
        <ele>876</ele>
        <time>2023-04-24T12:34:57Z</time>
      </trkpt>
      <trkpt lat="43.31615" lon="5.68876">
        <ele>877.2</ele>
        <time>2023-04-24T12:35:50Z</time>
      </trkpt>
      <trkpt lat="43.31609" lon="5.68887">
        <ele>878.8</ele>
        <time>2023-04-24T12:36:15Z</time>
      </trkpt>
      <trkpt lat="43.31605" lon="5.68897">
        <ele>879.6</ele>
        <time>2023-04-24T12:36:52Z</time>
      </trkpt>
      <trkpt lat="43.31605" lon="5.6891">
        <ele>884.2</ele>
        <time>2023-04-24T12:37:59Z</time>
      </trkpt>
      <trkpt lat="43.31599" lon="5.68919">
        <ele>882.6</ele>
        <time>2023-04-24T12:39:42Z</time>
      </trkpt>
      <trkpt lat="43.31594" lon="5.6893">
        <ele>876</ele>
        <time>2023-04-24T12:41:47Z</time>
      </trkpt>
      <trkpt lat="43.31586" lon="5.68936">
        <ele>873.8</ele>
        <time>2023-04-24T12:42:50Z</time>
      </trkpt>
      <trkpt lat="43.31577" lon="5.68934">
        <ele>869.8</ele>
        <time>2023-04-24T12:43:11Z</time>
      </trkpt>
      <trkpt lat="43.31567" lon="5.68935">
        <ele>869.2</ele>
        <time>2023-04-24T12:43:43Z</time>
      </trkpt>
      <trkpt lat="43.31558" lon="5.68935">
        <ele>867.7</ele>
        <time>2023-04-24T12:44:12Z</time>
      </trkpt>
      <trkpt lat="43.3155" lon="5.68943">
        <ele>867.4</ele>
        <time>2023-04-24T12:44:24Z</time>
      </trkpt>
      <trkpt lat="43.31541" lon="5.68945">
        <ele>867.3</ele>
        <time>2023-04-24T12:44:35Z</time>
      </trkpt>
      <trkpt lat="43.31533" lon="5.6895">
        <ele>867.4</ele>
        <time>2023-04-24T12:44:46Z</time>
      </trkpt>
      <trkpt lat="43.31523" lon="5.68948">
        <ele>867.3</ele>
        <time>2023-04-24T12:44:55Z</time>
      </trkpt>
      <trkpt lat="43.31514" lon="5.68947">
        <ele>867.3</ele>
        <time>2023-04-24T12:45:10Z</time>
      </trkpt>
      <trkpt lat="43.31505" lon="5.68947">
        <ele>866.4</ele>
        <time>2023-04-24T12:45:57Z</time>
      </trkpt>
      <trkpt lat="43.31514" lon="5.68947">
        <ele>867</ele>
        <time>2023-04-24T12:48:14Z</time>
      </trkpt>
      <trkpt lat="43.31519" lon="5.68957">
        <ele>866.6</ele>
        <time>2023-04-24T12:48:36Z</time>
      </trkpt>
      <trkpt lat="43.31523" lon="5.68969">
        <ele>865.4</ele>
        <time>2023-04-24T12:48:45Z</time>
      </trkpt>
      <trkpt lat="43.31528" lon="5.68978">
        <ele>863.4</ele>
        <time>2023-04-24T12:49:41Z</time>
      </trkpt>
      <trkpt lat="43.31536" lon="5.68985">
        <ele>864.9</ele>
        <time>2023-04-24T12:49:53Z</time>
      </trkpt>
      <trkpt lat="43.31545" lon="5.68985">
        <ele>862.8</ele>
        <time>2023-04-24T12:50:40Z</time>
      </trkpt>
      <trkpt lat="43.31553" lon="5.68978">
        <ele>860</ele>
        <time>2023-04-24T12:51:07Z</time>
      </trkpt>
      <trkpt lat="43.3156" lon="5.68971">
        <ele>858.5</ele>
        <time>2023-04-24T12:51:20Z</time>
      </trkpt>
      <trkpt lat="43.31567" lon="5.6898">
        <ele>863.7</ele>
        <time>2023-04-24T12:53:32Z</time>
      </trkpt>
      <trkpt lat="43.31573" lon="5.6899">
        <ele>861</ele>
        <time>2023-04-24T12:53:48Z</time>
      </trkpt>
      <trkpt lat="43.31578" lon="5.69">
        <ele>858.9</ele>
        <time>2023-04-24T12:54:05Z</time>
      </trkpt>
      <trkpt lat="43.31584" lon="5.6901">
        <ele>857.4</ele>
        <time>2023-04-24T12:54:17Z</time>
      </trkpt>
      <trkpt lat="43.31589" lon="5.69021">
        <ele>856.8</ele>
        <time>2023-04-24T12:54:37Z</time>
      </trkpt>
      <trkpt lat="43.31593" lon="5.69032">
        <ele>854.8</ele>
        <time>2023-04-24T12:55:03Z</time>
      </trkpt>
      <trkpt lat="43.31596" lon="5.69044">
        <ele>852</ele>
        <time>2023-04-24T12:55:41Z</time>
      </trkpt>
      <trkpt lat="43.31602" lon="5.69055">
        <ele>852.6</ele>
        <time>2023-04-24T12:55:53Z</time>
      </trkpt>
      <trkpt lat="43.31606" lon="5.69067">
        <ele>843.8</ele>
        <time>2023-04-24T12:56:39Z</time>
      </trkpt>
      <trkpt lat="43.31611" lon="5.69077">
        <ele>844.1</ele>
        <time>2023-04-24T12:57:03Z</time>
      </trkpt>
      <trkpt lat="43.31616" lon="5.69088">
        <ele>842.2</ele>
        <time>2023-04-24T12:57:25Z</time>
      </trkpt>
      <trkpt lat="43.31623" lon="5.69096">
        <ele>841.9</ele>
        <time>2023-04-24T12:58:23Z</time>
      </trkpt>
      <trkpt lat="43.31627" lon="5.69107">
        <ele>838.8</ele>
        <time>2023-04-24T12:58:54Z</time>
      </trkpt>
      <trkpt lat="43.31631" lon="5.69119">
        <ele>836.9</ele>
        <time>2023-04-24T12:59:29Z</time>
      </trkpt>
      <trkpt lat="43.31635" lon="5.6913">
        <ele>834</ele>
        <time>2023-04-24T12:59:50Z</time>
      </trkpt>
      <trkpt lat="43.31642" lon="5.6914">
        <ele>831.9</ele>
        <time>2023-04-24T13:00:04Z</time>
      </trkpt>
      <trkpt lat="43.31648" lon="5.6915">
        <ele>829.7</ele>
        <time>2023-04-24T13:00:20Z</time>
      </trkpt>
      <trkpt lat="43.31652" lon="5.69161">
        <ele>826.4</ele>
        <time>2023-04-24T13:00:47Z</time>
      </trkpt>
      <trkpt lat="43.31658" lon="5.6917">
        <ele>823.5</ele>
        <time>2023-04-24T13:01:23Z</time>
      </trkpt>
      <trkpt lat="43.31663" lon="5.6918">
        <ele>818.9</ele>
        <time>2023-04-24T13:01:37Z</time>
      </trkpt>
      <trkpt lat="43.31667" lon="5.69192">
        <ele>818.5</ele>
        <time>2023-04-24T13:02:12Z</time>
      </trkpt>
      <trkpt lat="43.31671" lon="5.69203">
        <ele>816.4</ele>
        <time>2023-04-24T13:02:41Z</time>
      </trkpt>
      <trkpt lat="43.31676" lon="5.69215">
        <ele>813.8</ele>
        <time>2023-04-24T13:03:43Z</time>
      </trkpt>
      <trkpt lat="43.3168" lon="5.69226">
        <ele>810.1</ele>
        <time>2023-04-24T13:04:02Z</time>
      </trkpt>
      <trkpt lat="43.31686" lon="5.69236">
        <ele>809.6</ele>
        <time>2023-04-24T13:04:29Z</time>
      </trkpt>
      <trkpt lat="43.31691" lon="5.69246">
        <ele>809</ele>
        <time>2023-04-24T13:04:43Z</time>
      </trkpt>
      <trkpt lat="43.31697" lon="5.69257">
        <ele>806.3</ele>
        <time>2023-04-24T13:05:06Z</time>
      </trkpt>
      <trkpt lat="43.31701" lon="5.69269">
        <ele>806</ele>
        <time>2023-04-24T13:05:28Z</time>
      </trkpt>
      <trkpt lat="43.31707" lon="5.69279">
        <ele>804.5</ele>
        <time>2023-04-24T13:05:40Z</time>
      </trkpt>
      <trkpt lat="43.31711" lon="5.6929">
        <ele>802.2</ele>
        <time>2023-04-24T13:05:53Z</time>
      </trkpt>
      <trkpt lat="43.31717" lon="5.693">
        <ele>799.9</ele>
        <time>2023-04-24T13:06:09Z</time>
      </trkpt>
      <trkpt lat="43.31721" lon="5.69312">
        <ele>797.8</ele>
        <time>2023-04-24T13:06:22Z</time>
      </trkpt>
      <trkpt lat="43.31729" lon="5.69321">
        <ele>795.8</ele>
        <time>2023-04-24T13:06:36Z</time>
      </trkpt>
      <trkpt lat="43.31734" lon="5.69331">
        <ele>796.6</ele>
        <time>2023-04-24T13:06:51Z</time>
      </trkpt>
      <trkpt lat="43.31739" lon="5.69342">
        <ele>796</ele>
        <time>2023-04-24T13:07:10Z</time>
      </trkpt>
      <trkpt lat="43.31745" lon="5.69352">
        <ele>794.8</ele>
        <time>2023-04-24T13:07:23Z</time>
      </trkpt>
      <trkpt lat="43.3175" lon="5.69363">
        <ele>793.1</ele>
        <time>2023-04-24T13:07:33Z</time>
      </trkpt>
      <trkpt lat="43.31756" lon="5.69373">
        <ele>791.7</ele>
        <time>2023-04-24T13:07:45Z</time>
      </trkpt>
      <trkpt lat="43.31763" lon="5.69383">
        <ele>790.9</ele>
        <time>2023-04-24T13:07:57Z</time>
      </trkpt>
      <trkpt lat="43.31769" lon="5.69393">
        <ele>789</ele>
        <time>2023-04-24T13:08:08Z</time>
      </trkpt>
      <trkpt lat="43.31772" lon="5.69405">
        <ele>788.8</ele>
        <time>2023-04-24T13:08:21Z</time>
      </trkpt>
      <trkpt lat="43.31776" lon="5.69417">
        <ele>789.2</ele>
        <time>2023-04-24T13:08:35Z</time>
      </trkpt>
      <trkpt lat="43.31782" lon="5.69426">
        <ele>788.7</ele>
        <time>2023-04-24T13:08:43Z</time>
      </trkpt>
      <trkpt lat="43.31788" lon="5.69436">
        <ele>788.1</ele>
        <time>2023-04-24T13:08:50Z</time>
      </trkpt>
      <trkpt lat="43.31789" lon="5.69449">
        <ele>783</ele>
        <time>2023-04-24T13:09:34Z</time>
      </trkpt>
      <trkpt lat="43.31795" lon="5.69458">
        <ele>783.6</ele>
        <time>2023-04-24T13:09:54Z</time>
      </trkpt>
      <trkpt lat="43.31799" lon="5.6947">
        <ele>783</ele>
        <time>2023-04-24T13:10:17Z</time>
      </trkpt>
      <trkpt lat="43.31805" lon="5.6948">
        <ele>782.1</ele>
        <time>2023-04-24T13:10:36Z</time>
      </trkpt>
      <trkpt lat="43.31809" lon="5.69491">
        <ele>780.2</ele>
        <time>2023-04-24T13:10:48Z</time>
      </trkpt>
      <trkpt lat="43.31809" lon="5.69504">
        <ele>779.7</ele>
        <time>2023-04-24T13:11:13Z</time>
      </trkpt>
      <trkpt lat="43.31818" lon="5.69508">
        <ele>780.2</ele>
        <time>2023-04-24T13:14:45Z</time>
      </trkpt>
      <trkpt lat="43.31824" lon="5.69518">
        <ele>779.6</ele>
        <time>2023-04-24T13:15:08Z</time>
      </trkpt>
      <trkpt lat="43.31828" lon="5.69529">
        <ele>778.6</ele>
        <time>2023-04-24T13:15:17Z</time>
      </trkpt>
      <trkpt lat="43.31833" lon="5.69541">
        <ele>776.5</ele>
        <time>2023-04-24T13:15:31Z</time>
      </trkpt>
      <trkpt lat="43.31837" lon="5.69552">
        <ele>775.4</ele>
        <time>2023-04-24T13:15:40Z</time>
      </trkpt>
      <trkpt lat="43.31843" lon="5.69563">
        <ele>773.8</ele>
        <time>2023-04-24T13:15:51Z</time>
      </trkpt>
      <trkpt lat="43.31847" lon="5.69574">
        <ele>772.2</ele>
        <time>2023-04-24T13:16:03Z</time>
      </trkpt>
      <trkpt lat="43.31852" lon="5.69585">
        <ele>771.3</ele>
        <time>2023-04-24T13:16:15Z</time>
      </trkpt>
      <trkpt lat="43.31857" lon="5.69597">
        <ele>765.2</ele>
        <time>2023-04-24T13:16:28Z</time>
      </trkpt>
      <trkpt lat="43.31862" lon="5.69608">
        <ele>770.9</ele>
        <time>2023-04-24T13:16:38Z</time>
      </trkpt>
      <trkpt lat="43.31867" lon="5.69619">
        <ele>773.1</ele>
        <time>2023-04-24T13:16:49Z</time>
      </trkpt>
      <trkpt lat="43.31872" lon="5.69629">
        <ele>769.3</ele>
        <time>2023-04-24T13:17:00Z</time>
      </trkpt>
      <trkpt lat="43.3188" lon="5.69637">
        <ele>767</ele>
        <time>2023-04-24T13:17:11Z</time>
      </trkpt>
      <trkpt lat="43.31882" lon="5.69648">
        <ele>765.9</ele>
        <time>2023-04-24T13:17:21Z</time>
      </trkpt>
      <trkpt lat="43.31887" lon="5.6966">
        <ele>766</ele>
        <time>2023-04-24T13:17:31Z</time>
      </trkpt>
      <trkpt lat="43.3189" lon="5.69672">
        <ele>763.9</ele>
        <time>2023-04-24T13:17:42Z</time>
      </trkpt>
      <trkpt lat="43.31895" lon="5.69682">
        <ele>762</ele>
        <time>2023-04-24T13:17:53Z</time>
      </trkpt>
      <trkpt lat="43.31901" lon="5.69693">
        <ele>759.1</ele>
        <time>2023-04-24T13:18:10Z</time>
      </trkpt>
      <trkpt lat="43.31905" lon="5.69704">
        <ele>758.1</ele>
        <time>2023-04-24T13:18:20Z</time>
      </trkpt>
      <trkpt lat="43.31909" lon="5.69715">
        <ele>757.1</ele>
        <time>2023-04-24T13:18:31Z</time>
      </trkpt>
      <trkpt lat="43.31914" lon="5.69726">
        <ele>756.7</ele>
        <time>2023-04-24T13:18:41Z</time>
      </trkpt>
      <trkpt lat="43.31919" lon="5.69737">
        <ele>755.6</ele>
        <time>2023-04-24T13:18:52Z</time>
      </trkpt>
      <trkpt lat="43.31926" lon="5.69745">
        <ele>751.3</ele>
        <time>2023-04-24T13:19:02Z</time>
      </trkpt>
      <trkpt lat="43.31933" lon="5.69755">
        <ele>751.3</ele>
        <time>2023-04-24T13:19:14Z</time>
      </trkpt>
      <trkpt lat="43.31941" lon="5.69763">
        <ele>752.8</ele>
        <time>2023-04-24T13:19:26Z</time>
      </trkpt>
      <trkpt lat="43.31946" lon="5.69774">
        <ele>752</ele>
        <time>2023-04-24T13:19:40Z</time>
      </trkpt>
      <trkpt lat="43.31953" lon="5.69783">
        <ele>750.3</ele>
        <time>2023-04-24T13:19:52Z</time>
      </trkpt>
      <trkpt lat="43.3196" lon="5.69791">
        <ele>748.6</ele>
        <time>2023-04-24T13:20:06Z</time>
      </trkpt>
      <trkpt lat="43.31969" lon="5.69796">
        <ele>746.9</ele>
        <time>2023-04-24T13:20:17Z</time>
      </trkpt>
      <trkpt lat="43.31975" lon="5.69806">
        <ele>747.3</ele>
        <time>2023-04-24T13:20:26Z</time>
      </trkpt>
      <trkpt lat="43.31979" lon="5.69817">
        <ele>746.8</ele>
        <time>2023-04-24T13:20:36Z</time>
      </trkpt>
      <trkpt lat="43.31984" lon="5.69828">
        <ele>741.4</ele>
        <time>2023-04-24T13:20:50Z</time>
      </trkpt>
      <trkpt lat="43.3199" lon="5.69838">
        <ele>740</ele>
        <time>2023-04-24T13:21:02Z</time>
      </trkpt>
      <trkpt lat="43.31997" lon="5.69846">
        <ele>737.4</ele>
        <time>2023-04-24T13:21:14Z</time>
      </trkpt>
      <trkpt lat="43.32004" lon="5.69854">
        <ele>737.1</ele>
        <time>2023-04-24T13:21:25Z</time>
      </trkpt>
      <trkpt lat="43.32011" lon="5.69865">
        <ele>730.4</ele>
        <time>2023-04-24T13:21:37Z</time>
      </trkpt>
      <trkpt lat="43.32018" lon="5.69874">
        <ele>733.5</ele>
        <time>2023-04-24T13:21:48Z</time>
      </trkpt>
      <trkpt lat="43.32024" lon="5.69884">
        <ele>735</ele>
        <time>2023-04-24T13:22:01Z</time>
      </trkpt>
      <trkpt lat="43.32032" lon="5.69892">
        <ele>734.8</ele>
        <time>2023-04-24T13:22:13Z</time>
      </trkpt>
      <trkpt lat="43.32038" lon="5.69902">
        <ele>733.6</ele>
        <time>2023-04-24T13:22:25Z</time>
      </trkpt>
      <trkpt lat="43.32044" lon="5.69911">
        <ele>731.3</ele>
        <time>2023-04-24T13:22:37Z</time>
      </trkpt>
      <trkpt lat="43.32052" lon="5.69919">
        <ele>729.5</ele>
        <time>2023-04-24T13:22:46Z</time>
      </trkpt>
      <trkpt lat="43.32059" lon="5.69927">
        <ele>728.7</ele>
        <time>2023-04-24T13:22:59Z</time>
      </trkpt>
      <trkpt lat="43.32066" lon="5.69936">
        <ele>728</ele>
        <time>2023-04-24T13:23:11Z</time>
      </trkpt>
      <trkpt lat="43.32072" lon="5.69945">
        <ele>726.1</ele>
        <time>2023-04-24T13:23:23Z</time>
      </trkpt>
      <trkpt lat="43.32079" lon="5.69953">
        <ele>724</ele>
        <time>2023-04-24T13:23:43Z</time>
      </trkpt>
      <trkpt lat="43.32084" lon="5.69964">
        <ele>723.2</ele>
        <time>2023-04-24T13:24:15Z</time>
      </trkpt>
      <trkpt lat="43.32091" lon="5.69973">
        <ele>724.7</ele>
        <time>2023-04-24T13:24:36Z</time>
      </trkpt>
      <trkpt lat="43.32097" lon="5.69981">
        <ele>720</ele>
        <time>2023-04-24T13:24:48Z</time>
      </trkpt>
      <trkpt lat="43.32105" lon="5.69989">
        <ele>717.2</ele>
        <time>2023-04-24T13:25:12Z</time>
      </trkpt>
      <trkpt lat="43.32112" lon="5.69999">
        <ele>716.3</ele>
        <time>2023-04-24T13:25:30Z</time>
      </trkpt>
      <trkpt lat="43.32117" lon="5.70009">
        <ele>713.9</ele>
        <time>2023-04-24T13:26:00Z</time>
      </trkpt>
      <trkpt lat="43.32116" lon="5.70022">
        <ele>712</ele>
        <time>2023-04-24T13:26:26Z</time>
      </trkpt>
      <trkpt lat="43.32108" lon="5.70028">
        <ele>710.3</ele>
        <time>2023-04-24T13:26:39Z</time>
      </trkpt>
      <trkpt lat="43.32102" lon="5.70038">
        <ele>707.8</ele>
        <time>2023-04-24T13:26:55Z</time>
      </trkpt>
      <trkpt lat="43.32097" lon="5.7005">
        <ele>704.7</ele>
        <time>2023-04-24T13:27:10Z</time>
      </trkpt>
      <trkpt lat="43.32099" lon="5.70062">
        <ele>703.3</ele>
        <time>2023-04-24T13:27:32Z</time>
      </trkpt>
      <trkpt lat="43.321" lon="5.70076">
        <ele>702.8</ele>
        <time>2023-04-24T13:27:41Z</time>
      </trkpt>
      <trkpt lat="43.32102" lon="5.70088">
        <ele>701.2</ele>
        <time>2023-04-24T13:27:53Z</time>
      </trkpt>
      <trkpt lat="43.32105" lon="5.701">
        <ele>697.9</ele>
        <time>2023-04-24T13:30:53Z</time>
      </trkpt>
      <trkpt lat="43.32112" lon="5.70109">
        <ele>698.2</ele>
        <time>2023-04-24T13:31:10Z</time>
      </trkpt>
      <trkpt lat="43.3212" lon="5.70117">
        <ele>698.5</ele>
        <time>2023-04-24T13:31:22Z</time>
      </trkpt>
      <trkpt lat="43.32128" lon="5.70123">
        <ele>698.5</ele>
        <time>2023-04-24T13:31:32Z</time>
      </trkpt>
      <trkpt lat="43.32138" lon="5.70127">
        <ele>697.8</ele>
        <time>2023-04-24T13:31:42Z</time>
      </trkpt>
      <trkpt lat="43.32145" lon="5.70135">
        <ele>697.3</ele>
        <time>2023-04-24T13:31:52Z</time>
      </trkpt>
      <trkpt lat="43.32149" lon="5.70147">
        <ele>695.4</ele>
        <time>2023-04-24T13:32:08Z</time>
      </trkpt>
      <trkpt lat="43.32154" lon="5.70158">
        <ele>691.6</ele>
        <time>2023-04-24T13:32:18Z</time>
      </trkpt>
      <trkpt lat="43.32162" lon="5.70166">
        <ele>694.5</ele>
        <time>2023-04-24T13:32:28Z</time>
      </trkpt>
      <trkpt lat="43.32168" lon="5.70175">
        <ele>694.9</ele>
        <time>2023-04-24T13:32:37Z</time>
      </trkpt>
      <trkpt lat="43.32175" lon="5.70184">
        <ele>691.8</ele>
        <time>2023-04-24T13:32:46Z</time>
      </trkpt>
      <trkpt lat="43.32183" lon="5.70191">
        <ele>691.9</ele>
        <time>2023-04-24T13:32:54Z</time>
      </trkpt>
      <trkpt lat="43.32191" lon="5.70199">
        <ele>693.7</ele>
        <time>2023-04-24T13:33:02Z</time>
      </trkpt>
      <trkpt lat="43.32195" lon="5.70209">
        <ele>699.5</ele>
        <time>2023-04-24T13:33:11Z</time>
      </trkpt>
      <trkpt lat="43.32202" lon="5.70219">
        <ele>694</ele>
        <time>2023-04-24T13:33:21Z</time>
      </trkpt>
      <trkpt lat="43.32208" lon="5.70228">
        <ele>695.2</ele>
        <time>2023-04-24T13:33:29Z</time>
      </trkpt>
      <trkpt lat="43.32215" lon="5.70237">
        <ele>695.6</ele>
        <time>2023-04-24T13:33:41Z</time>
      </trkpt>
      <trkpt lat="43.32222" lon="5.70246">
        <ele>691.5</ele>
        <time>2023-04-24T13:33:50Z</time>
      </trkpt>
      <trkpt lat="43.3223" lon="5.70254">
        <ele>693.1</ele>
        <time>2023-04-24T13:34:00Z</time>
      </trkpt>
      <trkpt lat="43.32236" lon="5.70264">
        <ele>694.3</ele>
        <time>2023-04-24T13:34:09Z</time>
      </trkpt>
      <trkpt lat="43.32242" lon="5.70274">
        <ele>694.6</ele>
        <time>2023-04-24T13:34:18Z</time>
      </trkpt>
      <trkpt lat="43.32247" lon="5.70285">
        <ele>695.1</ele>
        <time>2023-04-24T13:34:27Z</time>
      </trkpt>
      <trkpt lat="43.32254" lon="5.70295">
        <ele>699</ele>
        <time>2023-04-24T13:34:38Z</time>
      </trkpt>
      <trkpt lat="43.32258" lon="5.70307">
        <ele>695.3</ele>
        <time>2023-04-24T13:34:47Z</time>
      </trkpt>
      <trkpt lat="43.32262" lon="5.7032">
        <ele>697.4</ele>
        <time>2023-04-24T13:34:56Z</time>
      </trkpt>
      <trkpt lat="43.32267" lon="5.70331">
        <ele>696.9</ele>
        <time>2023-04-24T13:35:06Z</time>
      </trkpt>
      <trkpt lat="43.32273" lon="5.70341">
        <ele>697.1</ele>
        <time>2023-04-24T13:35:15Z</time>
      </trkpt>
      <trkpt lat="43.32279" lon="5.70351">
        <ele>697</ele>
        <time>2023-04-24T13:35:24Z</time>
      </trkpt>
      <trkpt lat="43.32284" lon="5.70361">
        <ele>697</ele>
        <time>2023-04-24T13:35:35Z</time>
      </trkpt>
      <trkpt lat="43.32286" lon="5.70374">
        <ele>696.3</ele>
        <time>2023-04-24T13:35:45Z</time>
      </trkpt>
      <trkpt lat="43.32286" lon="5.70387">
        <ele>695.4</ele>
        <time>2023-04-24T13:35:55Z</time>
      </trkpt>
      <trkpt lat="43.32284" lon="5.704">
        <ele>693.5</ele>
        <time>2023-04-24T13:36:07Z</time>
      </trkpt>
      <trkpt lat="43.32283" lon="5.70413">
        <ele>692.3</ele>
        <time>2023-04-24T13:36:18Z</time>
      </trkpt>
      <trkpt lat="43.32285" lon="5.70426">
        <ele>690.7</ele>
        <time>2023-04-24T13:36:28Z</time>
      </trkpt>
      <trkpt lat="43.32286" lon="5.70439">
        <ele>688.9</ele>
        <time>2023-04-24T13:36:39Z</time>
      </trkpt>
      <trkpt lat="43.32287" lon="5.70452">
        <ele>687.5</ele>
        <time>2023-04-24T13:36:48Z</time>
      </trkpt>
      <trkpt lat="43.32288" lon="5.70465">
        <ele>689.8</ele>
        <time>2023-04-24T13:36:56Z</time>
      </trkpt>
      <trkpt lat="43.32293" lon="5.70476">
        <ele>689.8</ele>
        <time>2023-04-24T13:37:04Z</time>
      </trkpt>
      <trkpt lat="43.32298" lon="5.70487">
        <ele>688.3</ele>
        <time>2023-04-24T13:37:12Z</time>
      </trkpt>
      <trkpt lat="43.32303" lon="5.70498">
        <ele>686.9</ele>
        <time>2023-04-24T13:37:21Z</time>
      </trkpt>
      <trkpt lat="43.32308" lon="5.70509">
        <ele>686.6</ele>
        <time>2023-04-24T13:37:31Z</time>
      </trkpt>
      <trkpt lat="43.3231" lon="5.70521">
        <ele>687.2</ele>
        <time>2023-04-24T13:37:44Z</time>
      </trkpt>
      <trkpt lat="43.32308" lon="5.70533">
        <ele>687.5</ele>
        <time>2023-04-24T13:37:59Z</time>
      </trkpt>
      <trkpt lat="43.32304" lon="5.70546">
        <ele>686.4</ele>
        <time>2023-04-24T13:38:11Z</time>
      </trkpt>
      <trkpt lat="43.32299" lon="5.70556">
        <ele>680.2</ele>
        <time>2023-04-24T13:38:26Z</time>
      </trkpt>
      <trkpt lat="43.32297" lon="5.70568">
        <ele>694.6</ele>
        <time>2023-04-24T13:39:15Z</time>
      </trkpt>
      <trkpt lat="43.32292" lon="5.70578">
        <ele>690.9</ele>
        <time>2023-04-24T13:39:51Z</time>
      </trkpt>
      <trkpt lat="43.32293" lon="5.70591">
        <ele>690.3</ele>
        <time>2023-04-24T13:40:15Z</time>
      </trkpt>
      <trkpt lat="43.32299" lon="5.706">
        <ele>689.7</ele>
        <time>2023-04-24T13:40:39Z</time>
      </trkpt>
      <trkpt lat="43.32304" lon="5.70612">
        <ele>689.3</ele>
        <time>2023-04-24T13:40:56Z</time>
      </trkpt>
      <trkpt lat="43.32309" lon="5.70622">
        <ele>688.9</ele>
        <time>2023-04-24T13:41:23Z</time>
      </trkpt>
      <trkpt lat="43.32316" lon="5.7063">
        <ele>688.8</ele>
        <time>2023-04-24T13:41:42Z</time>
      </trkpt>
      <trkpt lat="43.32324" lon="5.70636">
        <ele>689.1</ele>
        <time>2023-04-24T13:41:53Z</time>
      </trkpt>
      <trkpt lat="43.32333" lon="5.70641">
        <ele>688</ele>
        <time>2023-04-24T13:42:03Z</time>
      </trkpt>
      <trkpt lat="43.32341" lon="5.70646">
        <ele>688.2</ele>
        <time>2023-04-24T13:42:11Z</time>
      </trkpt>
      <trkpt lat="43.3235" lon="5.70649">
        <ele>688.5</ele>
        <time>2023-04-24T13:42:25Z</time>
      </trkpt>
      <trkpt lat="43.32356" lon="5.70658">
        <ele>688.5</ele>
        <time>2023-04-24T13:43:19Z</time>
      </trkpt>
      <trkpt lat="43.32356" lon="5.7067">
        <ele>688.2</ele>
        <time>2023-04-24T13:43:28Z</time>
      </trkpt>
      <trkpt lat="43.32354" lon="5.70682">
        <ele>687.8</ele>
        <time>2023-04-24T13:43:37Z</time>
      </trkpt>
      <trkpt lat="43.32356" lon="5.70695">
        <ele>687.7</ele>
        <time>2023-04-24T13:43:45Z</time>
      </trkpt>
      <trkpt lat="43.32356" lon="5.70707">
        <ele>687.8</ele>
        <time>2023-04-24T13:43:55Z</time>
      </trkpt>
      <trkpt lat="43.32361" lon="5.70718">
        <ele>687.7</ele>
        <time>2023-04-24T13:44:04Z</time>
      </trkpt>
      <trkpt lat="43.32362" lon="5.70732">
        <ele>683.8</ele>
        <time>2023-04-24T13:44:26Z</time>
      </trkpt>
      <trkpt lat="43.32358" lon="5.70719">
        <ele>686.6</ele>
        <time>2023-04-24T13:46:39Z</time>
      </trkpt>
      <trkpt lat="43.32351" lon="5.70711">
        <ele>687.1</ele>
        <time>2023-04-24T13:46:56Z</time>
      </trkpt>
      <trkpt lat="43.32353" lon="5.70709">
        <ele>686.2</ele>
        <time>2023-04-24T13:48:50Z</time>
      </trkpt>
    </trkseg>
  </trk>
</gpx>